<?xml version="1.0" encoding="UTF-8" standalone="no" ?>
<gpx xmlns="http://www.topografix.com/GPX/1/1" xmlns:xsi="http://www.w3.org/2001/XMLSchema-instance" xsi:schemaLocation="http://www.topografix.com/GPX/1/1 http://www.topografix.com/GPX/1/1/gpx.xsd" version="1.1" creator="VisuGPX - https://www.visugpx.com">
  <metadata>
    <name>Parcours VTT 18 Octobre - St Just Malmont</name>
    <desc><![CDATA[Parcours VTT Marche du Sou du 18 Octobre 2015.
]]></desc>
  </metadata>
  <trk>
    <name><![CDATA[MarcheSou VTT definitif .gpx]]></name>
    <trkseg>
      <trkpt lat="45.34016" lon="4.31557">
        <ele>800.15454</ele>
        <time>2015-10-17T07:22:31Z</time>
      </trkpt>
      <trkpt lat="45.3401" lon="4.31567">
        <ele>800.15454</ele>
        <time>2015-10-17T07:22:55Z</time>
      </trkpt>
      <trkpt lat="45.34001" lon="4.31579">
        <ele>799.20856</ele>
        <time>2015-10-17T07:22:58Z</time>
      </trkpt>
      <trkpt lat="45.33994" lon="4.31587">
        <ele>798.8334</ele>
        <time>2015-10-17T07:23:00Z</time>
      </trkpt>
      <trkpt lat="45.33999" lon="4.31599">
        <ele>797.8135</ele>
        <time>2015-10-17T07:23:50Z</time>
      </trkpt>
      <trkpt lat="45.34007" lon="4.31607">
        <ele>796.3312</ele>
        <time>2015-10-17T07:23:53Z</time>
      </trkpt>
      <trkpt lat="45.34018" lon="4.31611">
        <ele>794.8462</ele>
        <time>2015-10-17T07:23:56Z</time>
      </trkpt>
      <trkpt lat="45.34029" lon="4.31603">
        <ele>793.01776</ele>
        <time>2015-10-17T07:23:59Z</time>
      </trkpt>
      <trkpt lat="45.34036" lon="4.31592">
        <ele>791.8948</ele>
        <time>2015-10-17T07:24:02Z</time>
      </trkpt>
      <trkpt lat="45.34044" lon="4.31585">
        <ele>790.74805</ele>
        <time>2015-10-17T07:24:05Z</time>
      </trkpt>
      <trkpt lat="45.34054" lon="4.31585">
        <ele>790.0082</ele>
        <time>2015-10-17T07:24:09Z</time>
      </trkpt>
      <trkpt lat="45.34062" lon="4.31593">
        <ele>788.84033</ele>
        <time>2015-10-17T07:25:44Z</time>
      </trkpt>
      <trkpt lat="45.3407" lon="4.316">
        <ele>787.358</ele>
        <time>2015-10-17T07:25:49Z</time>
      </trkpt>
      <trkpt lat="45.34077" lon="4.31612">
        <ele>782.8582</ele>
        <time>2015-10-17T07:26:22Z</time>
      </trkpt>
      <trkpt lat="45.34081" lon="4.31625">
        <ele>783.0934</ele>
        <time>2015-10-17T07:26:25Z</time>
      </trkpt>
      <trkpt lat="45.34088" lon="4.31633">
        <ele>782.6785</ele>
        <time>2015-10-17T07:26:29Z</time>
      </trkpt>
      <trkpt lat="45.34089" lon="4.31646">
        <ele>783.29944</ele>
        <time>2015-10-17T07:26:55Z</time>
      </trkpt>
      <trkpt lat="45.34081" lon="4.31655">
        <ele>785.5163</ele>
        <time>2015-10-17T07:28:11Z</time>
      </trkpt>
      <trkpt lat="45.34073" lon="4.31662">
        <ele>786.8771</ele>
        <time>2015-10-17T07:28:14Z</time>
      </trkpt>
      <trkpt lat="45.34065" lon="4.3167">
        <ele>789.5881</ele>
        <time>2015-10-17T07:28:21Z</time>
      </trkpt>
      <trkpt lat="45.34057" lon="4.31676">
        <ele>791.4614</ele>
        <time>2015-10-17T07:28:28Z</time>
      </trkpt>
      <trkpt lat="45.34049" lon="4.31683">
        <ele>792.3757</ele>
        <time>2015-10-17T07:28:35Z</time>
      </trkpt>
      <trkpt lat="45.34042" lon="4.31694">
        <ele>791.5566</ele>
        <time>2015-10-17T07:28:40Z</time>
      </trkpt>
      <trkpt lat="45.34033" lon="4.31704">
        <ele>793.821</ele>
        <time>2015-10-17T07:28:45Z</time>
      </trkpt>
      <trkpt lat="45.34025" lon="4.31714">
        <ele>794.25433</ele>
        <time>2015-10-17T07:28:49Z</time>
      </trkpt>
      <trkpt lat="45.34018" lon="4.31722">
        <ele>795.2954</ele>
        <time>2015-10-17T07:28:56Z</time>
      </trkpt>
      <trkpt lat="45.34011" lon="4.3173">
        <ele>795.5966</ele>
        <time>2015-10-17T07:29:02Z</time>
      </trkpt>
      <trkpt lat="45.34002" lon="4.3174">
        <ele>796.6746</ele>
        <time>2015-10-17T07:29:08Z</time>
      </trkpt>
      <trkpt lat="45.33995" lon="4.3175">
        <ele>797.47</ele>
        <time>2015-10-17T07:29:13Z</time>
      </trkpt>
      <trkpt lat="45.33987" lon="4.3176">
        <ele>797.7553</ele>
        <time>2015-10-17T07:29:18Z</time>
      </trkpt>
      <trkpt lat="45.33978" lon="4.3177">
        <ele>798.06714</ele>
        <time>2015-10-17T07:29:23Z</time>
      </trkpt>
      <trkpt lat="45.33969" lon="4.3178">
        <ele>797.72363</ele>
        <time>2015-10-17T07:29:27Z</time>
      </trkpt>
      <trkpt lat="45.3396" lon="4.3179">
        <ele>798.60876</ele>
        <time>2015-10-17T07:29:31Z</time>
      </trkpt>
      <trkpt lat="45.33952" lon="4.31801">
        <ele>799.1637</ele>
        <time>2015-10-17T07:29:35Z</time>
      </trkpt>
      <trkpt lat="45.33946" lon="4.31811">
        <ele>799.11084</ele>
        <time>2015-10-17T07:29:39Z</time>
      </trkpt>
      <trkpt lat="45.33939" lon="4.31822">
        <ele>798.95496</ele>
        <time>2015-10-17T07:29:43Z</time>
      </trkpt>
      <trkpt lat="45.33932" lon="4.31834">
        <ele>798.74884</ele>
        <time>2015-10-17T07:29:47Z</time>
      </trkpt>
      <trkpt lat="45.33925" lon="4.31845">
        <ele>799.3433</ele>
        <time>2015-10-17T07:29:51Z</time>
      </trkpt>
      <trkpt lat="45.33918" lon="4.31855">
        <ele>798.78845</ele>
        <time>2015-10-17T07:29:54Z</time>
      </trkpt>
      <trkpt lat="45.33912" lon="4.31865">
        <ele>798.0381</ele>
        <time>2015-10-17T07:29:57Z</time>
      </trkpt>
      <trkpt lat="45.33905" lon="4.31878">
        <ele>797.54395</ele>
        <time>2015-10-17T07:30:00Z</time>
      </trkpt>
      <trkpt lat="45.33897" lon="4.31891">
        <ele>797.499</ele>
        <time>2015-10-17T07:30:03Z</time>
      </trkpt>
      <trkpt lat="45.33888" lon="4.31903">
        <ele>796.7724</ele>
        <time>2015-10-17T07:30:05Z</time>
      </trkpt>
      <trkpt lat="45.33881" lon="4.31914">
        <ele>796.8543</ele>
        <time>2015-10-17T07:30:08Z</time>
      </trkpt>
      <trkpt lat="45.33874" lon="4.31925">
        <ele>796.35754</ele>
        <time>2015-10-17T07:30:11Z</time>
      </trkpt>
      <trkpt lat="45.33865" lon="4.31936">
        <ele>796.10657</ele>
        <time>2015-10-17T07:30:14Z</time>
      </trkpt>
      <trkpt lat="45.33857" lon="4.31945">
        <ele>797.42505</ele>
        <time>2015-10-17T07:30:17Z</time>
      </trkpt>
      <trkpt lat="45.33847" lon="4.31953">
        <ele>797.7395</ele>
        <time>2015-10-17T07:30:21Z</time>
      </trkpt>
      <trkpt lat="45.33838" lon="4.31963">
        <ele>799.56</ele>
        <time>2015-10-17T07:30:25Z</time>
      </trkpt>
      <trkpt lat="45.3383" lon="4.31972">
        <ele>799.8824</ele>
        <time>2015-10-17T07:30:29Z</time>
      </trkpt>
      <trkpt lat="45.33821" lon="4.31978">
        <ele>801.1718</ele>
        <time>2015-10-17T07:30:33Z</time>
      </trkpt>
      <trkpt lat="45.33812" lon="4.31985">
        <ele>802.5669</ele>
        <time>2015-10-17T07:30:38Z</time>
      </trkpt>
      <trkpt lat="45.33803" lon="4.31994">
        <ele>803.5181</ele>
        <time>2015-10-17T07:30:43Z</time>
      </trkpt>
      <trkpt lat="45.33794" lon="4.32">
        <ele>803.571</ele>
        <time>2015-10-17T07:30:48Z</time>
      </trkpt>
      <trkpt lat="45.33785" lon="4.32004">
        <ele>804.3214</ele>
        <time>2015-10-17T07:30:53Z</time>
      </trkpt>
      <trkpt lat="45.33777" lon="4.32009">
        <ele>805.43115</ele>
        <time>2015-10-17T07:30:58Z</time>
      </trkpt>
      <trkpt lat="45.33764" lon="4.32012">
        <ele>807.06934</ele>
        <time>2015-10-17T07:31:05Z</time>
      </trkpt>
      <trkpt lat="45.33755" lon="4.32016">
        <ele>806.6783</ele>
        <time>2015-10-17T07:31:09Z</time>
      </trkpt>
      <trkpt lat="45.33744" lon="4.32019">
        <ele>807.6824</ele>
        <time>2015-10-17T07:31:13Z</time>
      </trkpt>
      <trkpt lat="45.33736" lon="4.32026">
        <ele>808.2716</ele>
        <time>2015-10-17T07:31:17Z</time>
      </trkpt>
      <trkpt lat="45.33727" lon="4.32027">
        <ele>808.5834</ele>
        <time>2015-10-17T07:31:22Z</time>
      </trkpt>
      <trkpt lat="45.33717" lon="4.3203">
        <ele>809.9785</ele>
        <time>2015-10-17T07:31:27Z</time>
      </trkpt>
      <trkpt lat="45.33707" lon="4.32032">
        <ele>810.9376</ele>
        <time>2015-10-17T07:31:35Z</time>
      </trkpt>
      <trkpt lat="45.33697" lon="4.32036">
        <ele>811.4661</ele>
        <time>2015-10-17T07:31:43Z</time>
      </trkpt>
      <trkpt lat="45.33688" lon="4.32036">
        <ele>811.7039</ele>
        <time>2015-10-17T07:31:50Z</time>
      </trkpt>
      <trkpt lat="45.33685" lon="4.32053">
        <ele>812.6657</ele>
        <time>2015-10-17T07:32:51Z</time>
      </trkpt>
      <trkpt lat="45.33683" lon="4.32066">
        <ele>813.01184</ele>
        <time>2015-10-17T07:32:55Z</time>
      </trkpt>
      <trkpt lat="45.3368" lon="4.3208">
        <ele>814.1216</ele>
        <time>2015-10-17T07:33:00Z</time>
      </trkpt>
      <trkpt lat="45.33676" lon="4.32093">
        <ele>815.2234</ele>
        <time>2015-10-17T07:33:05Z</time>
      </trkpt>
      <trkpt lat="45.33671" lon="4.32106">
        <ele>815.61975</ele>
        <time>2015-10-17T07:33:10Z</time>
      </trkpt>
      <trkpt lat="45.33669" lon="4.32119">
        <ele>815.5035</ele>
        <time>2015-10-17T07:33:22Z</time>
      </trkpt>
      <trkpt lat="45.33668" lon="4.32132">
        <ele>814.5866</ele>
        <time>2015-10-17T07:33:27Z</time>
      </trkpt>
      <trkpt lat="45.33672" lon="4.32147">
        <ele>814.08984</ele>
        <time>2015-10-17T07:33:55Z</time>
      </trkpt>
      <trkpt lat="45.33676" lon="4.32164">
        <ele>813.0409</ele>
        <time>2015-10-17T07:33:58Z</time>
      </trkpt>
      <trkpt lat="45.3368" lon="4.32178">
        <ele>813.40027</ele>
        <time>2015-10-17T07:34:01Z</time>
      </trkpt>
      <trkpt lat="45.33684" lon="4.3219">
        <ele>812.24554</ele>
        <time>2015-10-17T07:34:37Z</time>
      </trkpt>
      <trkpt lat="45.33688" lon="4.32204">
        <ele>811.9602</ele>
        <time>2015-10-17T07:34:41Z</time>
      </trkpt>
      <trkpt lat="45.33693" lon="4.32215">
        <ele>811.3578</ele>
        <time>2015-10-17T07:34:44Z</time>
      </trkpt>
      <trkpt lat="45.33698" lon="4.3223">
        <ele>811.297</ele>
        <time>2015-10-17T07:34:47Z</time>
      </trkpt>
      <trkpt lat="45.33704" lon="4.32244">
        <ele>811.94434</ele>
        <time>2015-10-17T07:34:50Z</time>
      </trkpt>
      <trkpt lat="45.33711" lon="4.32257">
        <ele>810.9535</ele>
        <time>2015-10-17T07:34:53Z</time>
      </trkpt>
      <trkpt lat="45.33719" lon="4.32272">
        <ele>811.9998</ele>
        <time>2015-10-17T07:34:56Z</time>
      </trkpt>
      <trkpt lat="45.33726" lon="4.32287">
        <ele>810.7897</ele>
        <time>2015-10-17T07:34:59Z</time>
      </trkpt>
      <trkpt lat="45.33733" lon="4.32303">
        <ele>811.28644</ele>
        <time>2015-10-17T07:35:02Z</time>
      </trkpt>
      <trkpt lat="45.33738" lon="4.32322">
        <ele>811.16486</ele>
        <time>2015-10-17T07:35:06Z</time>
      </trkpt>
      <trkpt lat="45.33741" lon="4.32338">
        <ele>810.26385</ele>
        <time>2015-10-17T07:35:09Z</time>
      </trkpt>
      <trkpt lat="45.33744" lon="4.32354">
        <ele>810.071</ele>
        <time>2015-10-17T07:35:12Z</time>
      </trkpt>
      <trkpt lat="45.33747" lon="4.32377">
        <ele>808.65735</ele>
        <time>2015-10-17T07:35:15Z</time>
      </trkpt>
      <trkpt lat="45.33749" lon="4.32399">
        <ele>806.9029</ele>
        <time>2015-10-17T07:35:18Z</time>
      </trkpt>
      <trkpt lat="45.33749" lon="4.32399">
        <ele>806.9029</ele>
        <time>2015-10-17T07:35:18Z</time>
      </trkpt>
      <trkpt lat="45.33752" lon="4.32415">
        <ele>805.6584</ele>
        <time>2015-10-17T07:35:21Z</time>
      </trkpt>
      <trkpt lat="45.33751" lon="4.32431">
        <ele>804.42706</ele>
        <time>2015-10-17T07:35:24Z</time>
      </trkpt>
      <trkpt lat="45.33748" lon="4.32444">
        <ele>803.7533</ele>
        <time>2015-10-17T07:35:26Z</time>
      </trkpt>
      <trkpt lat="45.33742" lon="4.32458">
        <ele>803.30145</ele>
        <time>2015-10-17T07:35:28Z</time>
      </trkpt>
      <trkpt lat="45.33734" lon="4.32472">
        <ele>802.7096</ele>
        <time>2015-10-17T07:35:30Z</time>
      </trkpt>
      <trkpt lat="45.33725" lon="4.32484">
        <ele>802.6356</ele>
        <time>2015-10-17T07:35:32Z</time>
      </trkpt>
      <trkpt lat="45.33716" lon="4.325">
        <ele>802.1336</ele>
        <time>2015-10-17T07:35:34Z</time>
      </trkpt>
      <trkpt lat="45.33706" lon="4.32513">
        <ele>803.0135</ele>
        <time>2015-10-17T07:35:37Z</time>
      </trkpt>
      <trkpt lat="45.33697" lon="4.32527">
        <ele>802.53784</ele>
        <time>2015-10-17T07:35:40Z</time>
      </trkpt>
      <trkpt lat="45.33688" lon="4.3254">
        <ele>803.7374</ele>
        <time>2015-10-17T07:35:43Z</time>
      </trkpt>
      <trkpt lat="45.33681" lon="4.32548">
        <ele>803.571</ele>
        <time>2015-10-17T07:35:47Z</time>
      </trkpt>
      <trkpt lat="45.33671" lon="4.32551">
        <ele>804.18396</ele>
        <time>2015-10-17T07:36:34Z</time>
      </trkpt>
      <trkpt lat="45.33662" lon="4.32553">
        <ele>804.88684</ele>
        <time>2015-10-17T07:36:41Z</time>
      </trkpt>
      <trkpt lat="45.33653" lon="4.32556">
        <ele>804.35046</ele>
        <time>2015-10-17T07:36:46Z</time>
      </trkpt>
      <trkpt lat="45.33643" lon="4.32562">
        <ele>805.8407</ele>
        <time>2015-10-17T07:36:50Z</time>
      </trkpt>
      <trkpt lat="45.33634" lon="4.32569">
        <ele>806.32684</ele>
        <time>2015-10-17T07:36:54Z</time>
      </trkpt>
      <trkpt lat="45.33624" lon="4.32576">
        <ele>806.9029</ele>
        <time>2015-10-17T07:36:58Z</time>
      </trkpt>
      <trkpt lat="45.33614" lon="4.32584">
        <ele>808.0285</ele>
        <time>2015-10-17T07:37:02Z</time>
      </trkpt>
      <trkpt lat="45.33605" lon="4.32591">
        <ele>808.5226</ele>
        <time>2015-10-17T07:37:06Z</time>
      </trkpt>
      <trkpt lat="45.33596" lon="4.32597">
        <ele>810.071</ele>
        <time>2015-10-17T07:37:10Z</time>
      </trkpt>
      <trkpt lat="45.33588" lon="4.32602">
        <ele>811.4952</ele>
        <time>2015-10-17T07:37:14Z</time>
      </trkpt>
      <trkpt lat="45.3358" lon="4.32609">
        <ele>811.6907</ele>
        <time>2015-10-17T07:37:18Z</time>
      </trkpt>
      <trkpt lat="45.33573" lon="4.32617">
        <ele>812.24554</ele>
        <time>2015-10-17T07:37:22Z</time>
      </trkpt>
      <trkpt lat="45.33565" lon="4.32625">
        <ele>813.2206</ele>
        <time>2015-10-17T07:37:26Z</time>
      </trkpt>
      <trkpt lat="45.33555" lon="4.32631">
        <ele>813.33154</ele>
        <time>2015-10-17T07:37:30Z</time>
      </trkpt>
      <trkpt lat="45.33544" lon="4.32633">
        <ele>814.3224</ele>
        <time>2015-10-17T07:37:34Z</time>
      </trkpt>
      <trkpt lat="45.33534" lon="4.32637">
        <ele>814.9037</ele>
        <time>2015-10-17T07:37:38Z</time>
      </trkpt>
      <trkpt lat="45.33524" lon="4.32641">
        <ele>815.9078</ele>
        <time>2015-10-17T07:37:42Z</time>
      </trkpt>
      <trkpt lat="45.33514" lon="4.32645">
        <ele>816.28827</ele>
        <time>2015-10-17T07:37:46Z</time>
      </trkpt>
      <trkpt lat="45.33506" lon="4.32652">
        <ele>817.2421</ele>
        <time>2015-10-17T07:37:50Z</time>
      </trkpt>
      <trkpt lat="45.33498" lon="4.3266">
        <ele>817.72565</ele>
        <time>2015-10-17T07:37:54Z</time>
      </trkpt>
      <trkpt lat="45.33487" lon="4.32669">
        <ele>818.64777</ele>
        <time>2015-10-17T07:37:59Z</time>
      </trkpt>
      <trkpt lat="45.33479" lon="4.32677">
        <ele>819.3348</ele>
        <time>2015-10-17T07:38:04Z</time>
      </trkpt>
      <trkpt lat="45.3347" lon="4.32685">
        <ele>820.3098</ele>
        <time>2015-10-17T07:38:09Z</time>
      </trkpt>
      <trkpt lat="45.33462" lon="4.32693">
        <ele>821.0443</ele>
        <time>2015-10-17T07:38:13Z</time>
      </trkpt>
      <trkpt lat="45.33449" lon="4.32702">
        <ele>821.372</ele>
        <time>2015-10-17T07:38:19Z</time>
      </trkpt>
      <trkpt lat="45.33442" lon="4.3271">
        <ele>822.4342</ele>
        <time>2015-10-17T07:38:23Z</time>
      </trkpt>
      <trkpt lat="45.33435" lon="4.32719">
        <ele>822.3074</ele>
        <time>2015-10-17T07:38:27Z</time>
      </trkpt>
      <trkpt lat="45.33429" lon="4.3273">
        <ele>822.92566</ele>
        <time>2015-10-17T07:38:31Z</time>
      </trkpt>
      <trkpt lat="45.33422" lon="4.32742">
        <ele>823.5175</ele>
        <time>2015-10-17T07:38:36Z</time>
      </trkpt>
      <trkpt lat="45.33415" lon="4.32754">
        <ele>823.6787</ele>
        <time>2015-10-17T07:38:41Z</time>
      </trkpt>
      <trkpt lat="45.3341" lon="4.32765">
        <ele>824.5797</ele>
        <time>2015-10-17T07:38:45Z</time>
      </trkpt>
      <trkpt lat="45.33405" lon="4.32776">
        <ele>824.9972</ele>
        <time>2015-10-17T07:38:49Z</time>
      </trkpt>
      <trkpt lat="45.33399" lon="4.3279">
        <ele>825.56793</ele>
        <time>2015-10-17T07:38:54Z</time>
      </trkpt>
      <trkpt lat="45.33396" lon="4.32803">
        <ele>826.70935</ele>
        <time>2015-10-17T07:38:59Z</time>
      </trkpt>
      <trkpt lat="45.33395" lon="4.32817">
        <ele>827.148</ele>
        <time>2015-10-17T07:39:39Z</time>
      </trkpt>
      <trkpt lat="45.3339" lon="4.3283">
        <ele>827.53906</ele>
        <time>2015-10-17T07:39:45Z</time>
      </trkpt>
      <trkpt lat="45.33385" lon="4.32843">
        <ele>827.6289</ele>
        <time>2015-10-17T07:39:51Z</time>
      </trkpt>
      <trkpt lat="45.3338" lon="4.32856">
        <ele>828.95264</ele>
        <time>2015-10-17T07:39:57Z</time>
      </trkpt>
      <trkpt lat="45.33376" lon="4.32869">
        <ele>830.1708</ele>
        <time>2015-10-17T07:40:03Z</time>
      </trkpt>
      <trkpt lat="45.33371" lon="4.32882">
        <ele>830.8049</ele>
        <time>2015-10-17T07:40:09Z</time>
      </trkpt>
      <trkpt lat="45.33367" lon="4.32896">
        <ele>830.5301</ele>
        <time>2015-10-17T07:40:15Z</time>
      </trkpt>
      <trkpt lat="45.33363" lon="4.32908">
        <ele>831.00305</ele>
        <time>2015-10-17T07:40:21Z</time>
      </trkpt>
      <trkpt lat="45.33358" lon="4.32922">
        <ele>832.7549</ele>
        <time>2015-10-17T07:40:27Z</time>
      </trkpt>
      <trkpt lat="45.33355" lon="4.32934">
        <ele>832.2159</ele>
        <time>2015-10-17T07:40:37Z</time>
      </trkpt>
      <trkpt lat="45.33351" lon="4.32946">
        <ele>833.2675</ele>
        <time>2015-10-17T07:40:55Z</time>
      </trkpt>
      <trkpt lat="45.33348" lon="4.3296">
        <ele>834.0047</ele>
        <time>2015-10-17T07:41:05Z</time>
      </trkpt>
      <trkpt lat="45.33344" lon="4.32972">
        <ele>834.6494</ele>
        <time>2015-10-17T07:41:10Z</time>
      </trkpt>
      <trkpt lat="45.3334" lon="4.32986">
        <ele>835.33374</ele>
        <time>2015-10-17T07:41:15Z</time>
      </trkpt>
      <trkpt lat="45.33336" lon="4.33">
        <ele>836.05774</ele>
        <time>2015-10-17T07:41:21Z</time>
      </trkpt>
      <trkpt lat="45.33331" lon="4.33013">
        <ele>836.8901</ele>
        <time>2015-10-17T07:41:26Z</time>
      </trkpt>
      <trkpt lat="45.33327" lon="4.33025">
        <ele>837.75146</ele>
        <time>2015-10-17T07:41:31Z</time>
      </trkpt>
      <trkpt lat="45.33323" lon="4.33037">
        <ele>838.1742</ele>
        <time>2015-10-17T07:41:37Z</time>
      </trkpt>
      <trkpt lat="45.33319" lon="4.3305">
        <ele>839.0012</ele>
        <time>2015-10-17T07:41:42Z</time>
      </trkpt>
      <trkpt lat="45.33313" lon="4.33063">
        <ele>839.6195</ele>
        <time>2015-10-17T07:41:48Z</time>
      </trkpt>
      <trkpt lat="45.33308" lon="4.33076">
        <ele>840.1163</ele>
        <time>2015-10-17T07:41:53Z</time>
      </trkpt>
      <trkpt lat="45.33305" lon="4.33089">
        <ele>840.8429</ele>
        <time>2015-10-17T07:41:58Z</time>
      </trkpt>
      <trkpt lat="45.33305" lon="4.33102">
        <ele>841.3476</ele>
        <time>2015-10-17T07:42:03Z</time>
      </trkpt>
      <trkpt lat="45.33304" lon="4.33115">
        <ele>841.9104</ele>
        <time>2015-10-17T07:42:08Z</time>
      </trkpt>
      <trkpt lat="45.33302" lon="4.3313">
        <ele>843.715</ele>
        <time>2015-10-17T07:42:14Z</time>
      </trkpt>
      <trkpt lat="45.33302" lon="4.33144">
        <ele>844.7984</ele>
        <time>2015-10-17T07:42:20Z</time>
      </trkpt>
      <trkpt lat="45.33299" lon="4.33157">
        <ele>845.8315</ele>
        <time>2015-10-17T07:42:26Z</time>
      </trkpt>
      <trkpt lat="45.33296" lon="4.3317">
        <ele>846.5</ele>
        <time>2015-10-17T07:42:32Z</time>
      </trkpt>
      <trkpt lat="45.33293" lon="4.33182">
        <ele>847.327</ele>
        <time>2015-10-17T07:42:38Z</time>
      </trkpt>
      <trkpt lat="45.33289" lon="4.33195">
        <ele>848.09064</ele>
        <time>2015-10-17T07:42:43Z</time>
      </trkpt>
      <trkpt lat="45.33287" lon="4.33208">
        <ele>848.81464</ele>
        <time>2015-10-17T07:42:48Z</time>
      </trkpt>
      <trkpt lat="45.33286" lon="4.3322">
        <ele>849.3616</ele>
        <time>2015-10-17T07:42:53Z</time>
      </trkpt>
      <trkpt lat="45.33283" lon="4.33234">
        <ele>850.2071</ele>
        <time>2015-10-17T07:42:59Z</time>
      </trkpt>
      <trkpt lat="45.33282" lon="4.33247">
        <ele>851.24554</ele>
        <time>2015-10-17T07:43:05Z</time>
      </trkpt>
      <trkpt lat="45.33279" lon="4.33261">
        <ele>852.7966</ele>
        <time>2015-10-17T07:43:11Z</time>
      </trkpt>
      <trkpt lat="45.33274" lon="4.33273">
        <ele>852.84674</ele>
        <time>2015-10-17T07:43:17Z</time>
      </trkpt>
      <trkpt lat="45.33268" lon="4.33283">
        <ele>853.77686</ele>
        <time>2015-10-17T07:43:23Z</time>
      </trkpt>
      <trkpt lat="45.33262" lon="4.33293">
        <ele>853.77686</ele>
        <time>2015-10-17T07:43:27Z</time>
      </trkpt>
      <trkpt lat="45.33257" lon="4.33305">
        <ele>854.27356</ele>
        <time>2015-10-17T07:44:09Z</time>
      </trkpt>
      <trkpt lat="45.33251" lon="4.33316">
        <ele>854.47174</ele>
        <time>2015-10-17T07:44:12Z</time>
      </trkpt>
      <trkpt lat="45.33243" lon="4.33328">
        <ele>854.83374</ele>
        <time>2015-10-17T07:44:18Z</time>
      </trkpt>
      <trkpt lat="45.33236" lon="4.33339">
        <ele>855.05835</ele>
        <time>2015-10-17T07:44:23Z</time>
      </trkpt>
      <trkpt lat="45.33228" lon="4.33353">
        <ele>855.35956</ele>
        <time>2015-10-17T07:44:28Z</time>
      </trkpt>
      <trkpt lat="45.33221" lon="4.33363">
        <ele>855.07153</ele>
        <time>2015-10-17T07:44:33Z</time>
      </trkpt>
      <trkpt lat="45.33214" lon="4.33374">
        <ele>855.05304</ele>
        <time>2015-10-17T07:44:38Z</time>
      </trkpt>
      <trkpt lat="45.33206" lon="4.33387">
        <ele>854.7624</ele>
        <time>2015-10-17T07:44:43Z</time>
      </trkpt>
      <trkpt lat="45.33197" lon="4.33398">
        <ele>855.72156</ele>
        <time>2015-10-17T07:44:47Z</time>
      </trkpt>
      <trkpt lat="45.33189" lon="4.33408">
        <ele>855.1482</ele>
        <time>2015-10-17T07:44:51Z</time>
      </trkpt>
      <trkpt lat="45.3318" lon="4.33418">
        <ele>854.6673</ele>
        <time>2015-10-17T07:44:55Z</time>
      </trkpt>
      <trkpt lat="45.33171" lon="4.3343">
        <ele>854.1996</ele>
        <time>2015-10-17T07:44:59Z</time>
      </trkpt>
      <trkpt lat="45.33164" lon="4.3344">
        <ele>853.8984</ele>
        <time>2015-10-17T07:45:02Z</time>
      </trkpt>
      <trkpt lat="45.33154" lon="4.33452">
        <ele>853.0396</ele>
        <time>2015-10-17T07:45:06Z</time>
      </trkpt>
      <trkpt lat="45.33144" lon="4.33461">
        <ele>853.2034</ele>
        <time>2015-10-17T07:45:09Z</time>
      </trkpt>
      <trkpt lat="45.33134" lon="4.33471">
        <ele>852.10425</ele>
        <time>2015-10-17T07:45:12Z</time>
      </trkpt>
      <trkpt lat="45.33122" lon="4.33484">
        <ele>851.3063</ele>
        <time>2015-10-17T07:45:16Z</time>
      </trkpt>
      <trkpt lat="45.33112" lon="4.33497">
        <ele>851.3988</ele>
        <time>2015-10-17T07:45:19Z</time>
      </trkpt>
      <trkpt lat="45.33104" lon="4.33511">
        <ele>851.2614</ele>
        <time>2015-10-17T07:45:22Z</time>
      </trkpt>
      <trkpt lat="45.33099" lon="4.33527">
        <ele>851.4569</ele>
        <time>2015-10-17T07:45:25Z</time>
      </trkpt>
      <trkpt lat="45.33095" lon="4.3354">
        <ele>850.76465</ele>
        <time>2015-10-17T07:45:28Z</time>
      </trkpt>
      <trkpt lat="45.33094" lon="4.33554">
        <ele>850.7488</ele>
        <time>2015-10-17T07:45:33Z</time>
      </trkpt>
      <trkpt lat="45.33098" lon="4.33568">
        <ele>850.1437</ele>
        <time>2015-10-17T07:45:38Z</time>
      </trkpt>
      <trkpt lat="45.33097" lon="4.33581">
        <ele>850.26526</ele>
        <time>2015-10-17T07:45:43Z</time>
      </trkpt>
      <trkpt lat="45.33091" lon="4.33593">
        <ele>849.01544</ele>
        <time>2015-10-17T07:45:47Z</time>
      </trkpt>
      <trkpt lat="45.33086" lon="4.33605">
        <ele>849.3616</ele>
        <time>2015-10-17T07:46:35Z</time>
      </trkpt>
      <trkpt lat="45.33079" lon="4.33615">
        <ele>850.3868</ele>
        <time>2015-10-17T07:47:08Z</time>
      </trkpt>
      <trkpt lat="45.33071" lon="4.33623">
        <ele>852.98944</ele>
        <time>2015-10-17T07:47:16Z</time>
      </trkpt>
      <trkpt lat="45.33063" lon="4.33632">
        <ele>854.0041</ele>
        <time>2015-10-17T07:47:22Z</time>
      </trkpt>
      <trkpt lat="45.33055" lon="4.33638">
        <ele>855.05304</ele>
        <time>2015-10-17T07:47:28Z</time>
      </trkpt>
      <trkpt lat="45.33048" lon="4.33645">
        <ele>856.4297</ele>
        <time>2015-10-17T07:47:33Z</time>
      </trkpt>
      <trkpt lat="45.33039" lon="4.3365">
        <ele>857.9067</ele>
        <time>2015-10-17T07:47:40Z</time>
      </trkpt>
      <trkpt lat="45.33033" lon="4.3366">
        <ele>858.3744</ele>
        <time>2015-10-17T07:47:47Z</time>
      </trkpt>
      <trkpt lat="45.33025" lon="4.33668">
        <ele>859.3547</ele>
        <time>2015-10-17T07:47:53Z</time>
      </trkpt>
      <trkpt lat="45.33017" lon="4.33677">
        <ele>860.1843</ele>
        <time>2015-10-17T07:47:58Z</time>
      </trkpt>
      <trkpt lat="45.33012" lon="4.33688">
        <ele>860.3825</ele>
        <time>2015-10-17T07:48:03Z</time>
      </trkpt>
      <trkpt lat="45.33007" lon="4.33701">
        <ele>860.5886</ele>
        <time>2015-10-17T07:48:08Z</time>
      </trkpt>
      <trkpt lat="45.33002" lon="4.33712">
        <ele>860.1553</ele>
        <time>2015-10-17T07:48:12Z</time>
      </trkpt>
      <trkpt lat="45.32995" lon="4.33722">
        <ele>861.4077</ele>
        <time>2015-10-17T07:48:16Z</time>
      </trkpt>
      <trkpt lat="45.32989" lon="4.33731">
        <ele>861.5662</ele>
        <time>2015-10-17T07:48:20Z</time>
      </trkpt>
      <trkpt lat="45.32982" lon="4.33742">
        <ele>862.2665</ele>
        <time>2015-10-17T07:48:25Z</time>
      </trkpt>
      <trkpt lat="45.32975" lon="4.33751">
        <ele>863.0512</ele>
        <time>2015-10-17T07:48:30Z</time>
      </trkpt>
      <trkpt lat="45.32965" lon="4.33759">
        <ele>861.9467</ele>
        <time>2015-10-17T07:48:36Z</time>
      </trkpt>
      <trkpt lat="45.32955" lon="4.33765">
        <ele>861.5477</ele>
        <time>2015-10-17T07:48:40Z</time>
      </trkpt>
      <trkpt lat="45.32946" lon="4.3377">
        <ele>860.2002</ele>
        <time>2015-10-17T07:48:43Z</time>
      </trkpt>
      <trkpt lat="45.32936" lon="4.33778">
        <ele>860.5173</ele>
        <time>2015-10-17T07:48:47Z</time>
      </trkpt>
      <trkpt lat="45.32927" lon="4.33789">
        <ele>860.261</ele>
        <time>2015-10-17T07:48:51Z</time>
      </trkpt>
      <trkpt lat="45.32921" lon="4.33798">
        <ele>860.4988</ele>
        <time>2015-10-17T07:48:54Z</time>
      </trkpt>
      <trkpt lat="45.32913" lon="4.33808">
        <ele>860.5463</ele>
        <time>2015-10-17T07:48:57Z</time>
      </trkpt>
      <trkpt lat="45.32905" lon="4.33817">
        <ele>860.3191</ele>
        <time>2015-10-17T07:49:00Z</time>
      </trkpt>
      <trkpt lat="45.32893" lon="4.33824">
        <ele>860.77094</ele>
        <time>2015-10-17T07:49:03Z</time>
      </trkpt>
      <trkpt lat="45.32882" lon="4.33829">
        <ele>861.1197</ele>
        <time>2015-10-17T07:49:06Z</time>
      </trkpt>
      <trkpt lat="45.32871" lon="4.3383">
        <ele>861.3628</ele>
        <time>2015-10-17T07:49:09Z</time>
      </trkpt>
      <trkpt lat="45.32861" lon="4.3383">
        <ele>860.4988</ele>
        <time>2015-10-17T07:49:12Z</time>
      </trkpt>
      <trkpt lat="45.32851" lon="4.3383">
        <ele>861.6191</ele>
        <time>2015-10-17T07:49:15Z</time>
      </trkpt>
      <trkpt lat="45.32842" lon="4.33832">
        <ele>862.3114</ele>
        <time>2015-10-17T07:49:18Z</time>
      </trkpt>
      <trkpt lat="45.32832" lon="4.33835">
        <ele>861.8384</ele>
        <time>2015-10-17T07:49:21Z</time>
      </trkpt>
      <trkpt lat="45.32823" lon="4.33837">
        <ele>862.6892</ele>
        <time>2015-10-17T07:49:24Z</time>
      </trkpt>
      <trkpt lat="45.32813" lon="4.33842">
        <ele>863.614</ele>
        <time>2015-10-17T07:49:28Z</time>
      </trkpt>
      <trkpt lat="45.32805" lon="4.33846">
        <ele>863.90204</ele>
        <time>2015-10-17T07:49:32Z</time>
      </trkpt>
      <trkpt lat="45.32794" lon="4.3385">
        <ele>865.1703</ele>
        <time>2015-10-17T07:49:37Z</time>
      </trkpt>
      <trkpt lat="45.32785" lon="4.33854">
        <ele>866.1004</ele>
        <time>2015-10-17T07:49:42Z</time>
      </trkpt>
      <trkpt lat="45.32776" lon="4.33858">
        <ele>866.7028</ele>
        <time>2015-10-17T07:49:47Z</time>
      </trkpt>
      <trkpt lat="45.32766" lon="4.33864">
        <ele>867.4321</ele>
        <time>2015-10-17T07:49:53Z</time>
      </trkpt>
      <trkpt lat="45.32757" lon="4.33869">
        <ele>868.6845</ele>
        <time>2015-10-17T07:49:59Z</time>
      </trkpt>
      <trkpt lat="45.32748" lon="4.33876">
        <ele>870.1748</ele>
        <time>2015-10-17T07:50:05Z</time>
      </trkpt>
      <trkpt lat="45.32738" lon="4.33881">
        <ele>871.18677</ele>
        <time>2015-10-17T07:50:12Z</time>
      </trkpt>
      <trkpt lat="45.32729" lon="4.33887">
        <ele>872.05347</ele>
        <time>2015-10-17T07:50:18Z</time>
      </trkpt>
      <trkpt lat="45.32721" lon="4.33895">
        <ele>872.32556</ele>
        <time>2015-10-17T07:50:24Z</time>
      </trkpt>
      <trkpt lat="45.32713" lon="4.33904">
        <ele>873.03107</ele>
        <time>2015-10-17T07:50:31Z</time>
      </trkpt>
      <trkpt lat="45.32709" lon="4.33916">
        <ele>874.39185</ele>
        <time>2015-10-17T07:50:36Z</time>
      </trkpt>
      <trkpt lat="45.32707" lon="4.33928">
        <ele>875.06036</ele>
        <time>2015-10-17T07:50:42Z</time>
      </trkpt>
      <trkpt lat="45.32708" lon="4.33941">
        <ele>876.8729</ele>
        <time>2015-10-17T07:50:49Z</time>
      </trkpt>
      <trkpt lat="45.32711" lon="4.33954">
        <ele>878.5587</ele>
        <time>2015-10-17T07:50:58Z</time>
      </trkpt>
      <trkpt lat="45.3271" lon="4.33967">
        <ele>879.5205</ele>
        <time>2015-10-17T07:51:05Z</time>
      </trkpt>
      <trkpt lat="45.32703" lon="4.33979">
        <ele>880.35547</ele>
        <time>2015-10-17T07:51:11Z</time>
      </trkpt>
      <trkpt lat="45.327" lon="4.33991">
        <ele>879.88513</ele>
        <time>2015-10-17T07:51:41Z</time>
      </trkpt>
      <trkpt lat="45.32707" lon="4.34003">
        <ele>877.6207</ele>
        <time>2015-10-17T07:54:02Z</time>
      </trkpt>
      <trkpt lat="45.32711" lon="4.34017">
        <ele>877.6339</ele>
        <time>2015-10-17T07:54:06Z</time>
      </trkpt>
      <trkpt lat="45.32715" lon="4.3403">
        <ele>877.23755</ele>
        <time>2015-10-17T07:54:10Z</time>
      </trkpt>
      <trkpt lat="45.32719" lon="4.34042">
        <ele>877.3935</ele>
        <time>2015-10-17T07:54:41Z</time>
      </trkpt>
      <trkpt lat="45.32723" lon="4.34054">
        <ele>877.96155</ele>
        <time>2015-10-17T07:54:46Z</time>
      </trkpt>
      <trkpt lat="45.32728" lon="4.34067">
        <ele>877.54407</ele>
        <time>2015-10-17T07:54:51Z</time>
      </trkpt>
      <trkpt lat="45.32733" lon="4.34081">
        <ele>877.60486</ele>
        <time>2015-10-17T07:54:56Z</time>
      </trkpt>
      <trkpt lat="45.32738" lon="4.34095">
        <ele>877.54407</ele>
        <time>2015-10-17T07:55:01Z</time>
      </trkpt>
      <trkpt lat="45.32742" lon="4.34108">
        <ele>877.86115</ele>
        <time>2015-10-17T07:55:06Z</time>
      </trkpt>
      <trkpt lat="45.32748" lon="4.34119">
        <ele>877.20056</ele>
        <time>2015-10-17T07:55:10Z</time>
      </trkpt>
      <trkpt lat="45.32753" lon="4.3413">
        <ele>878.12537</ele>
        <time>2015-10-17T07:55:14Z</time>
      </trkpt>
      <trkpt lat="45.32761" lon="4.34139">
        <ele>878.239</ele>
        <time>2015-10-17T07:56:02Z</time>
      </trkpt>
      <trkpt lat="45.32768" lon="4.34151">
        <ele>876.7276</ele>
        <time>2015-10-17T07:56:49Z</time>
      </trkpt>
      <trkpt lat="45.32772" lon="4.34161">
        <ele>875.89795</ele>
        <time>2015-10-17T07:56:54Z</time>
      </trkpt>
      <trkpt lat="45.32779" lon="4.34175">
        <ele>876.02216</ele>
        <time>2015-10-17T07:56:58Z</time>
      </trkpt>
      <trkpt lat="45.32784" lon="4.34186">
        <ele>875.351</ele>
        <time>2015-10-17T07:57:02Z</time>
      </trkpt>
      <trkpt lat="45.3279" lon="4.34196">
        <ele>876.0486</ele>
        <time>2015-10-17T07:57:06Z</time>
      </trkpt>
      <trkpt lat="45.32797" lon="4.34207">
        <ele>875.7764</ele>
        <time>2015-10-17T07:57:10Z</time>
      </trkpt>
      <trkpt lat="45.32804" lon="4.34215">
        <ele>876.40265</ele>
        <time>2015-10-17T07:57:16Z</time>
      </trkpt>
      <trkpt lat="45.32811" lon="4.34225">
        <ele>876.60345</ele>
        <time>2015-10-17T07:57:46Z</time>
      </trkpt>
      <trkpt lat="45.32818" lon="4.34235">
        <ele>877.7555</ele>
        <time>2015-10-17T07:57:52Z</time>
      </trkpt>
      <trkpt lat="45.32824" lon="4.34245">
        <ele>878.017</ele>
        <time>2015-10-17T07:58:02Z</time>
      </trkpt>
      <trkpt lat="45.32832" lon="4.34253">
        <ele>878.9788</ele>
        <time>2015-10-17T07:58:21Z</time>
      </trkpt>
      <trkpt lat="45.32839" lon="4.34263">
        <ele>880.53516</ele>
        <time>2015-10-17T07:58:33Z</time>
      </trkpt>
      <trkpt lat="45.32845" lon="4.34272">
        <ele>881.97253</ele>
        <time>2015-10-17T07:58:50Z</time>
      </trkpt>
      <trkpt lat="45.32852" lon="4.34281">
        <ele>883.0902</ele>
        <time>2015-10-17T07:58:58Z</time>
      </trkpt>
      <trkpt lat="45.32859" lon="4.3429">
        <ele>884.59894</ele>
        <time>2015-10-17T07:59:08Z</time>
      </trkpt>
      <trkpt lat="45.32866" lon="4.34298">
        <ele>885.88837</ele>
        <time>2015-10-17T07:59:25Z</time>
      </trkpt>
      <trkpt lat="45.32875" lon="4.34295">
        <ele>886.63086</ele>
        <time>2015-10-17T07:59:37Z</time>
      </trkpt>
      <trkpt lat="45.32882" lon="4.34306">
        <ele>888.3193</ele>
        <time>2015-10-17T08:00:56Z</time>
      </trkpt>
      <trkpt lat="45.3289" lon="4.34315">
        <ele>890.7581</ele>
        <time>2015-10-17T08:01:15Z</time>
      </trkpt>
      <trkpt lat="45.32896" lon="4.34326">
        <ele>892.08716</ele>
        <time>2015-10-17T08:01:22Z</time>
      </trkpt>
      <trkpt lat="45.32904" lon="4.3433">
        <ele>892.08716</ele>
        <time>2015-10-17T08:03:40Z</time>
      </trkpt>
      <trkpt lat="45.32911" lon="4.34342">
        <ele>892.54956</ele>
        <time>2015-10-17T08:04:03Z</time>
      </trkpt>
      <trkpt lat="45.32918" lon="4.34352">
        <ele>892.31177</ele>
        <time>2015-10-17T08:04:08Z</time>
      </trkpt>
      <trkpt lat="45.32927" lon="4.34361">
        <ele>892.0951</ele>
        <time>2015-10-17T08:04:13Z</time>
      </trkpt>
      <trkpt lat="45.32937" lon="4.34368">
        <ele>891.2575</ele>
        <time>2015-10-17T08:04:16Z</time>
      </trkpt>
      <trkpt lat="45.32946" lon="4.34377">
        <ele>890.877</ele>
        <time>2015-10-17T08:04:19Z</time>
      </trkpt>
      <trkpt lat="45.32953" lon="4.34388">
        <ele>890.06055</ele>
        <time>2015-10-17T08:04:22Z</time>
      </trkpt>
      <trkpt lat="45.32959" lon="4.34399">
        <ele>889.07764</ele>
        <time>2015-10-17T08:04:25Z</time>
      </trkpt>
      <trkpt lat="45.32966" lon="4.34409">
        <ele>888.6258</ele>
        <time>2015-10-17T08:04:29Z</time>
      </trkpt>
      <trkpt lat="45.32971" lon="4.3442">
        <ele>887.85156</ele>
        <time>2015-10-17T08:05:24Z</time>
      </trkpt>
      <trkpt lat="45.32971" lon="4.34433">
        <ele>887.2333</ele>
        <time>2015-10-17T08:07:08Z</time>
      </trkpt>
      <trkpt lat="45.32964" lon="4.3444">
        <ele>887.2624</ele>
        <time>2015-10-17T08:07:14Z</time>
      </trkpt>
      <trkpt lat="45.32954" lon="4.34443">
        <ele>887.8384</ele>
        <time>2015-10-17T08:07:20Z</time>
      </trkpt>
      <trkpt lat="45.32946" lon="4.34453">
        <ele>887.19366</ele>
        <time>2015-10-17T08:07:23Z</time>
      </trkpt>
      <trkpt lat="45.32939" lon="4.34465">
        <ele>886.85016</ele>
        <time>2015-10-17T08:07:26Z</time>
      </trkpt>
      <trkpt lat="45.32933" lon="4.34476">
        <ele>886.8396</ele>
        <time>2015-10-17T08:07:29Z</time>
      </trkpt>
      <trkpt lat="45.32925" lon="4.34486">
        <ele>886.9453</ele>
        <time>2015-10-17T08:07:33Z</time>
      </trkpt>
      <trkpt lat="45.32919" lon="4.34497">
        <ele>887.701</ele>
        <time>2015-10-17T08:07:36Z</time>
      </trkpt>
      <trkpt lat="45.32913" lon="4.34508">
        <ele>887.62964</ele>
        <time>2015-10-17T08:07:39Z</time>
      </trkpt>
      <trkpt lat="45.32906" lon="4.3452">
        <ele>887.43146</ele>
        <time>2015-10-17T08:07:43Z</time>
      </trkpt>
      <trkpt lat="45.32903" lon="4.34533">
        <ele>887.6851</ele>
        <time>2015-10-17T08:07:46Z</time>
      </trkpt>
      <trkpt lat="45.32901" lon="4.34548">
        <ele>888.26117</ele>
        <time>2015-10-17T08:07:49Z</time>
      </trkpt>
      <trkpt lat="45.32899" lon="4.34564">
        <ele>887.65607</ele>
        <time>2015-10-17T08:07:52Z</time>
      </trkpt>
      <trkpt lat="45.32895" lon="4.34579">
        <ele>889.2626</ele>
        <time>2015-10-17T08:07:55Z</time>
      </trkpt>
      <trkpt lat="45.32888" lon="4.34594">
        <ele>888.565</ele>
        <time>2015-10-17T08:07:58Z</time>
      </trkpt>
      <trkpt lat="45.3288" lon="4.34603">
        <ele>890.27985</ele>
        <time>2015-10-17T08:08:02Z</time>
      </trkpt>
      <trkpt lat="45.3289" lon="4.34604">
        <ele>890.63654</ele>
        <time>2015-10-17T08:09:56Z</time>
      </trkpt>
      <trkpt lat="45.329" lon="4.34608">
        <ele>890.9325</ele>
        <time>2015-10-17T08:10:00Z</time>
      </trkpt>
      <trkpt lat="45.32911" lon="4.34613">
        <ele>890.4252</ele>
        <time>2015-10-17T08:10:04Z</time>
      </trkpt>
      <trkpt lat="45.32921" lon="4.34615">
        <ele>889.88086</ele>
        <time>2015-10-17T08:10:07Z</time>
      </trkpt>
      <trkpt lat="45.32932" lon="4.34616">
        <ele>889.8439</ele>
        <time>2015-10-17T08:10:10Z</time>
      </trkpt>
      <trkpt lat="45.32944" lon="4.34617">
        <ele>889.7144</ele>
        <time>2015-10-17T08:10:13Z</time>
      </trkpt>
      <trkpt lat="45.32954" lon="4.34617">
        <ele>888.8821</ele>
        <time>2015-10-17T08:10:15Z</time>
      </trkpt>
      <trkpt lat="45.32966" lon="4.34615">
        <ele>888.1264</ele>
        <time>2015-10-17T08:10:18Z</time>
      </trkpt>
      <trkpt lat="45.32976" lon="4.3461">
        <ele>887.6666</ele>
        <time>2015-10-17T08:10:21Z</time>
      </trkpt>
      <trkpt lat="45.32988" lon="4.34603">
        <ele>886.7788</ele>
        <time>2015-10-17T08:10:24Z</time>
      </trkpt>
      <trkpt lat="45.33012" lon="4.34593">
        <ele>885.76685</ele>
        <time>2015-10-17T08:10:26Z</time>
      </trkpt>
      <trkpt lat="45.33025" lon="4.34585">
        <ele>884.79974</ele>
        <time>2015-10-17T08:10:28Z</time>
      </trkpt>
      <trkpt lat="45.33035" lon="4.34579">
        <ele>883.9965</ele>
        <time>2015-10-17T08:10:29Z</time>
      </trkpt>
      <trkpt lat="45.3305" lon="4.34567">
        <ele>882.9845</ele>
        <time>2015-10-17T08:10:32Z</time>
      </trkpt>
      <trkpt lat="45.33059" lon="4.3456">
        <ele>882.5459</ele>
        <time>2015-10-17T08:10:34Z</time>
      </trkpt>
      <trkpt lat="45.33067" lon="4.34555">
        <ele>882.07825</ele>
        <time>2015-10-17T08:10:36Z</time>
      </trkpt>
      <trkpt lat="45.33078" lon="4.34546">
        <ele>881.4573</ele>
        <time>2015-10-17T08:10:38Z</time>
      </trkpt>
      <trkpt lat="45.33093" lon="4.34537">
        <ele>880.6276</ele>
        <time>2015-10-17T08:10:40Z</time>
      </trkpt>
      <trkpt lat="45.33109" lon="4.34526">
        <ele>880.06744</ele>
        <time>2015-10-17T08:10:42Z</time>
      </trkpt>
      <trkpt lat="45.33125" lon="4.34521">
        <ele>879.5707</ele>
        <time>2015-10-17T08:10:43Z</time>
      </trkpt>
      <trkpt lat="45.33144" lon="4.34514">
        <ele>879.6843</ele>
        <time>2015-10-17T08:10:44Z</time>
      </trkpt>
      <trkpt lat="45.33154" lon="4.3451">
        <ele>879.1453</ele>
        <time>2015-10-17T08:10:45Z</time>
      </trkpt>
      <trkpt lat="45.33167" lon="4.34505">
        <ele>878.86786</ele>
        <time>2015-10-17T08:10:46Z</time>
      </trkpt>
      <trkpt lat="45.33182" lon="4.34497">
        <ele>878.28394</ele>
        <time>2015-10-17T08:10:47Z</time>
      </trkpt>
      <trkpt lat="45.33196" lon="4.3449">
        <ele>877.0922</ele>
        <time>2015-10-17T08:10:49Z</time>
      </trkpt>
      <trkpt lat="45.33215" lon="4.34494">
        <ele>876.08026</ele>
        <time>2015-10-17T08:10:51Z</time>
      </trkpt>
      <trkpt lat="45.3323" lon="4.34491">
        <ele>874.4077</ele>
        <time>2015-10-17T08:10:53Z</time>
      </trkpt>
      <trkpt lat="45.3324" lon="4.34477">
        <ele>873.3746</ele>
        <time>2015-10-17T08:10:55Z</time>
      </trkpt>
      <trkpt lat="45.33249" lon="4.34469">
        <ele>871.59894</ele>
        <time>2015-10-17T08:10:57Z</time>
      </trkpt>
      <trkpt lat="45.33258" lon="4.34462">
        <ele>871.0573</ele>
        <time>2015-10-17T08:10:59Z</time>
      </trkpt>
      <trkpt lat="45.33267" lon="4.34455">
        <ele>869.4085</ele>
        <time>2015-10-17T08:11:02Z</time>
      </trkpt>
      <trkpt lat="45.3327" lon="4.34441">
        <ele>869.55383</ele>
        <time>2015-10-17T08:11:29Z</time>
      </trkpt>
      <trkpt lat="45.33278" lon="4.34446">
        <ele>869.7705</ele>
        <time>2015-10-17T08:11:41Z</time>
      </trkpt>
      <trkpt lat="45.33278" lon="4.34431">
        <ele>869.6437</ele>
        <time>2015-10-17T08:12:17Z</time>
      </trkpt>
      <trkpt lat="45.33279" lon="4.34416">
        <ele>869.0095</ele>
        <time>2015-10-17T08:12:21Z</time>
      </trkpt>
      <trkpt lat="45.33279" lon="4.344">
        <ele>868.5022</ele>
        <time>2015-10-17T08:12:24Z</time>
      </trkpt>
      <trkpt lat="45.3328" lon="4.34383">
        <ele>867.366</ele>
        <time>2015-10-17T08:12:27Z</time>
      </trkpt>
      <trkpt lat="45.33282" lon="4.34363">
        <ele>866.6183</ele>
        <time>2015-10-17T08:12:30Z</time>
      </trkpt>
      <trkpt lat="45.33284" lon="4.34348">
        <ele>865.239</ele>
        <time>2015-10-17T08:12:32Z</time>
      </trkpt>
      <trkpt lat="45.33286" lon="4.34332">
        <ele>864.86115</ele>
        <time>2015-10-17T08:12:34Z</time>
      </trkpt>
      <trkpt lat="45.33286" lon="4.34303">
        <ele>864.86115</ele>
        <time>2015-10-17T08:12:36Z</time>
      </trkpt>
      <trkpt lat="45.33288" lon="4.34286">
        <ele>865.0118</ele>
        <time>2015-10-17T08:12:38Z</time>
      </trkpt>
      <trkpt lat="45.33292" lon="4.34271">
        <ele>865.76746</ele>
        <time>2015-10-17T08:12:41Z</time>
      </trkpt>
      <trkpt lat="45.33294" lon="4.34256">
        <ele>865.4346</ele>
        <time>2015-10-17T08:12:45Z</time>
      </trkpt>
      <trkpt lat="45.33294" lon="4.34242">
        <ele>865.4953</ele>
        <time>2015-10-17T08:12:49Z</time>
      </trkpt>
      <trkpt lat="45.33294" lon="4.34224">
        <ele>865.35</ele>
        <time>2015-10-17T08:12:53Z</time>
      </trkpt>
      <trkpt lat="45.33295" lon="4.34209">
        <ele>865.5323</ele>
        <time>2015-10-17T08:12:56Z</time>
      </trkpt>
      <trkpt lat="45.33296" lon="4.34191">
        <ele>864.877</ele>
        <time>2015-10-17T08:12:59Z</time>
      </trkpt>
      <trkpt lat="45.333" lon="4.34177">
        <ele>865.8573</ele>
        <time>2015-10-17T08:13:02Z</time>
      </trkpt>
      <trkpt lat="45.33302" lon="4.34164">
        <ele>869.0122</ele>
        <time>2015-10-17T08:13:37Z</time>
      </trkpt>
      <trkpt lat="45.33304" lon="4.34151">
        <ele>870.0955</ele>
        <time>2015-10-17T08:13:41Z</time>
      </trkpt>
      <trkpt lat="45.33307" lon="4.34136">
        <ele>871.06525</ele>
        <time>2015-10-17T08:13:46Z</time>
      </trkpt>
      <trkpt lat="45.33312" lon="4.34123">
        <ele>872.8699</ele>
        <time>2015-10-17T08:13:52Z</time>
      </trkpt>
      <trkpt lat="45.33313" lon="4.34107">
        <ele>873.94794</ele>
        <time>2015-10-17T08:13:58Z</time>
      </trkpt>
      <trkpt lat="45.33313" lon="4.34092">
        <ele>875.1581</ele>
        <time>2015-10-17T08:14:04Z</time>
      </trkpt>
      <trkpt lat="45.33316" lon="4.34079">
        <ele>875.43024</ele>
        <time>2015-10-17T08:14:09Z</time>
      </trkpt>
      <trkpt lat="45.33321" lon="4.34066">
        <ele>877.31683</ele>
        <time>2015-10-17T08:14:14Z</time>
      </trkpt>
      <trkpt lat="45.33324" lon="4.34053">
        <ele>878.10425</ele>
        <time>2015-10-17T08:14:18Z</time>
      </trkpt>
      <trkpt lat="45.33328" lon="4.34039">
        <ele>878.36053</ele>
        <time>2015-10-17T08:14:23Z</time>
      </trkpt>
      <trkpt lat="45.33329" lon="4.34025">
        <ele>879.1744</ele>
        <time>2015-10-17T08:14:28Z</time>
      </trkpt>
      <trkpt lat="45.33332" lon="4.34012">
        <ele>879.1004</ele>
        <time>2015-10-17T08:14:34Z</time>
      </trkpt>
      <trkpt lat="45.33334" lon="4.33998">
        <ele>878.7384</ele>
        <time>2015-10-17T08:14:48Z</time>
      </trkpt>
      <trkpt lat="45.33336" lon="4.33986">
        <ele>877.84796</ele>
        <time>2015-10-17T08:14:54Z</time>
      </trkpt>
      <trkpt lat="45.33339" lon="4.33972">
        <ele>877.2878</ele>
        <time>2015-10-17T08:15:01Z</time>
      </trkpt>
      <trkpt lat="45.33346" lon="4.33965">
        <ele>877.3327</ele>
        <time>2015-10-17T08:15:15Z</time>
      </trkpt>
      <trkpt lat="45.33355" lon="4.3397">
        <ele>877.6894</ele>
        <time>2015-10-17T08:15:31Z</time>
      </trkpt>
      <trkpt lat="45.33364" lon="4.33968">
        <ele>878.28394</ele>
        <time>2015-10-17T08:16:16Z</time>
      </trkpt>
      <trkpt lat="45.33374" lon="4.33963">
        <ele>878.86786</ele>
        <time>2015-10-17T08:16:23Z</time>
      </trkpt>
      <trkpt lat="45.33384" lon="4.33961">
        <ele>879.3937</ele>
        <time>2015-10-17T08:16:30Z</time>
      </trkpt>
      <trkpt lat="45.33393" lon="4.33956">
        <ele>879.938</ele>
        <time>2015-10-17T08:16:37Z</time>
      </trkpt>
      <trkpt lat="45.33401" lon="4.33947">
        <ele>880.5193</ele>
        <time>2015-10-17T08:16:44Z</time>
      </trkpt>
      <trkpt lat="45.3341" lon="4.33942">
        <ele>880.6646</ele>
        <time>2015-10-17T08:16:50Z</time>
      </trkpt>
      <trkpt lat="45.33418" lon="4.33936">
        <ele>880.8073</ele>
        <time>2015-10-17T08:16:57Z</time>
      </trkpt>
      <trkpt lat="45.33428" lon="4.33932">
        <ele>881.0662</ele>
        <time>2015-10-17T08:17:03Z</time>
      </trkpt>
      <trkpt lat="45.33437" lon="4.33928">
        <ele>881.6053</ele>
        <time>2015-10-17T08:17:09Z</time>
      </trkpt>
      <trkpt lat="45.33446" lon="4.33928">
        <ele>881.65546</ele>
        <time>2015-10-17T08:17:17Z</time>
      </trkpt>
      <trkpt lat="45.33456" lon="4.33921">
        <ele>881.0451</ele>
        <time>2015-10-17T08:17:31Z</time>
      </trkpt>
      <trkpt lat="45.33465" lon="4.33913">
        <ele>880.6276</ele>
        <time>2015-10-17T08:17:35Z</time>
      </trkpt>
      <trkpt lat="45.33473" lon="4.33906">
        <ele>880.1018</ele>
        <time>2015-10-17T08:17:38Z</time>
      </trkpt>
      <trkpt lat="45.33482" lon="4.33899">
        <ele>880.67255</ele>
        <time>2015-10-17T08:17:41Z</time>
      </trkpt>
      <trkpt lat="45.33491" lon="4.33893">
        <ele>879.46765</ele>
        <time>2015-10-17T08:17:45Z</time>
      </trkpt>
      <trkpt lat="45.33498" lon="4.33882">
        <ele>879.8825</ele>
        <time>2015-10-17T08:17:49Z</time>
      </trkpt>
      <trkpt lat="45.33507" lon="4.33874">
        <ele>878.3896</ele>
        <time>2015-10-17T08:17:53Z</time>
      </trkpt>
      <trkpt lat="45.33516" lon="4.33867">
        <ele>878.22577</ele>
        <time>2015-10-17T08:17:56Z</time>
      </trkpt>
      <trkpt lat="45.33524" lon="4.33858">
        <ele>876.96545</ele>
        <time>2015-10-17T08:17:59Z</time>
      </trkpt>
      <trkpt lat="45.33531" lon="4.3385">
        <ele>876.6061</ele>
        <time>2015-10-17T08:18:02Z</time>
      </trkpt>
      <trkpt lat="45.3354" lon="4.33839">
        <ele>876.03796</ele>
        <time>2015-10-17T08:18:06Z</time>
      </trkpt>
      <trkpt lat="45.33548" lon="4.3383">
        <ele>876.2467</ele>
        <time>2015-10-17T08:18:09Z</time>
      </trkpt>
      <trkpt lat="45.33556" lon="4.33823">
        <ele>875.853</ele>
        <time>2015-10-17T08:18:12Z</time>
      </trkpt>
      <trkpt lat="45.33564" lon="4.33814">
        <ele>874.53455</ele>
        <time>2015-10-17T08:18:15Z</time>
      </trkpt>
      <trkpt lat="45.33574" lon="4.33803">
        <ele>874.2809</ele>
        <time>2015-10-17T08:18:18Z</time>
      </trkpt>
      <trkpt lat="45.33582" lon="4.33795">
        <ele>873.9797</ele>
        <time>2015-10-17T08:18:21Z</time>
      </trkpt>
      <trkpt lat="45.33591" lon="4.33785">
        <ele>873.5384</ele>
        <time>2015-10-17T08:18:24Z</time>
      </trkpt>
      <trkpt lat="45.336" lon="4.33774">
        <ele>872.9967</ele>
        <time>2015-10-17T08:18:27Z</time>
      </trkpt>
      <trkpt lat="45.33607" lon="4.33763">
        <ele>872.0323</ele>
        <time>2015-10-17T08:18:30Z</time>
      </trkpt>
      <trkpt lat="45.33616" lon="4.33756">
        <ele>871.6888</ele>
        <time>2015-10-17T08:18:33Z</time>
      </trkpt>
      <trkpt lat="45.33622" lon="4.33746">
        <ele>871.50385</ele>
        <time>2015-10-17T08:18:36Z</time>
      </trkpt>
      <trkpt lat="45.3363" lon="4.33737">
        <ele>870.80365</ele>
        <time>2015-10-17T08:18:39Z</time>
      </trkpt>
      <trkpt lat="45.33638" lon="4.33729">
        <ele>870.08496</ele>
        <time>2015-10-17T08:18:41Z</time>
      </trkpt>
      <trkpt lat="45.33645" lon="4.3372">
        <ele>868.97253</ele>
        <time>2015-10-17T08:18:44Z</time>
      </trkpt>
      <trkpt lat="45.33653" lon="4.33712">
        <ele>867.57745</ele>
        <time>2015-10-17T08:18:48Z</time>
      </trkpt>
      <trkpt lat="45.33661" lon="4.33701">
        <ele>866.4756</ele>
        <time>2015-10-17T08:18:52Z</time>
      </trkpt>
      <trkpt lat="45.33668" lon="4.3369">
        <ele>865.9313</ele>
        <time>2015-10-17T08:18:55Z</time>
      </trkpt>
      <trkpt lat="45.33676" lon="4.33681">
        <ele>865.73047</ele>
        <time>2015-10-17T08:18:57Z</time>
      </trkpt>
      <trkpt lat="45.33685" lon="4.33671">
        <ele>865.1148</ele>
        <time>2015-10-17T08:19:00Z</time>
      </trkpt>
      <trkpt lat="45.33694" lon="4.33661">
        <ele>864.49915</ele>
        <time>2015-10-17T08:19:03Z</time>
      </trkpt>
      <trkpt lat="45.33702" lon="4.33653">
        <ele>864.3195</ele>
        <time>2015-10-17T08:19:07Z</time>
      </trkpt>
      <trkpt lat="45.33711" lon="4.33647">
        <ele>863.614</ele>
        <time>2015-10-17T08:19:13Z</time>
      </trkpt>
      <trkpt lat="45.33713" lon="4.33635">
        <ele>863.7382</ele>
        <time>2015-10-17T08:20:14Z</time>
      </trkpt>
      <trkpt lat="45.33715" lon="4.33648">
        <ele>863.0327</ele>
        <time>2015-10-17T08:22:10Z</time>
      </trkpt>
      <trkpt lat="45.33714" lon="4.33661">
        <ele>861.9943</ele>
        <time>2015-10-17T08:24:06Z</time>
      </trkpt>
      <trkpt lat="45.3372" lon="4.33674">
        <ele>860.8423</ele>
        <time>2015-10-17T08:24:12Z</time>
      </trkpt>
      <trkpt lat="45.33725" lon="4.33687">
        <ele>859.2146</ele>
        <time>2015-10-17T08:24:17Z</time>
      </trkpt>
      <trkpt lat="45.3373" lon="4.33703">
        <ele>856.8445</ele>
        <time>2015-10-17T08:24:21Z</time>
      </trkpt>
      <trkpt lat="45.33732" lon="4.33715">
        <ele>854.31055</ele>
        <time>2015-10-17T08:24:24Z</time>
      </trkpt>
      <trkpt lat="45.33733" lon="4.33728">
        <ele>853.0238</ele>
        <time>2015-10-17T08:24:29Z</time>
      </trkpt>
      <trkpt lat="45.3373" lon="4.33741">
        <ele>849.84515</ele>
        <time>2015-10-17T08:24:34Z</time>
      </trkpt>
      <trkpt lat="45.33727" lon="4.33758">
        <ele>846.91486</ele>
        <time>2015-10-17T08:24:49Z</time>
      </trkpt>
      <trkpt lat="45.33725" lon="4.33773">
        <ele>845.9583</ele>
        <time>2015-10-17T08:24:52Z</time>
      </trkpt>
      <trkpt lat="45.33722" lon="4.33786">
        <ele>845.1128</ele>
        <time>2015-10-17T08:24:54Z</time>
      </trkpt>
      <trkpt lat="45.3372" lon="4.33807">
        <ele>844.88824</ele>
        <time>2015-10-17T08:24:56Z</time>
      </trkpt>
      <trkpt lat="45.33715" lon="4.33818">
        <ele>843.30817</ele>
        <time>2015-10-17T08:24:59Z</time>
      </trkpt>
      <trkpt lat="45.33712" lon="4.33832">
        <ele>842.43353</ele>
        <time>2015-10-17T08:25:01Z</time>
      </trkpt>
      <trkpt lat="45.33709" lon="4.33848">
        <ele>841.1838</ele>
        <time>2015-10-17T08:25:03Z</time>
      </trkpt>
      <trkpt lat="45.33706" lon="4.3387">
        <ele>840.687</ele>
        <time>2015-10-17T08:25:05Z</time>
      </trkpt>
      <trkpt lat="45.33699" lon="4.33885">
        <ele>840.7029</ele>
        <time>2015-10-17T08:25:06Z</time>
      </trkpt>
      <trkpt lat="45.33693" lon="4.33898">
        <ele>839.0567</ele>
        <time>2015-10-17T08:25:09Z</time>
      </trkpt>
      <trkpt lat="45.33696" lon="4.33915">
        <ele>838.08435</ele>
        <time>2015-10-17T08:25:12Z</time>
      </trkpt>
      <trkpt lat="45.33701" lon="4.33932">
        <ele>836.8716</ele>
        <time>2015-10-17T08:25:16Z</time>
      </trkpt>
      <trkpt lat="45.33704" lon="4.33949">
        <ele>833.7457</ele>
        <time>2015-10-17T08:25:20Z</time>
      </trkpt>
      <trkpt lat="45.33707" lon="4.33962">
        <ele>832.4827</ele>
        <time>2015-10-17T08:25:23Z</time>
      </trkpt>
      <trkpt lat="45.33712" lon="4.33976">
        <ele>831.5236</ele>
        <time>2015-10-17T08:25:26Z</time>
      </trkpt>
      <trkpt lat="45.33721" lon="4.33984">
        <ele>829.5049</ele>
        <time>2015-10-17T08:25:29Z</time>
      </trkpt>
      <trkpt lat="45.33734" lon="4.33988">
        <ele>828.2234</ele>
        <time>2015-10-17T08:25:32Z</time>
      </trkpt>
      <trkpt lat="45.33745" lon="4.33992">
        <ele>826.85205</ele>
        <time>2015-10-17T08:25:34Z</time>
      </trkpt>
      <trkpt lat="45.33754" lon="4.33995">
        <ele>826.0779</ele>
        <time>2015-10-17T08:25:36Z</time>
      </trkpt>
      <trkpt lat="45.33765" lon="4.34">
        <ele>823.88745</ele>
        <time>2015-10-17T08:25:39Z</time>
      </trkpt>
      <trkpt lat="45.33777" lon="4.34005">
        <ele>822.0669</ele>
        <time>2015-10-17T08:25:42Z</time>
      </trkpt>
      <trkpt lat="45.33787" lon="4.3401">
        <ele>819.2608</ele>
        <time>2015-10-17T08:25:45Z</time>
      </trkpt>
      <trkpt lat="45.338" lon="4.34012">
        <ele>817.8366</ele>
        <time>2015-10-17T08:25:48Z</time>
      </trkpt>
      <trkpt lat="45.3381" lon="4.34016">
        <ele>816.5551</ele>
        <time>2015-10-17T08:25:51Z</time>
      </trkpt>
      <trkpt lat="45.33819" lon="4.34017">
        <ele>814.61835</ele>
        <time>2015-10-17T08:25:55Z</time>
      </trkpt>
      <trkpt lat="45.3383" lon="4.3402">
        <ele>812.75555</ele>
        <time>2015-10-17T08:26:00Z</time>
      </trkpt>
      <trkpt lat="45.33837" lon="4.3403">
        <ele>810.1793</ele>
        <time>2015-10-17T08:26:12Z</time>
      </trkpt>
      <trkpt lat="45.33842" lon="4.34041">
        <ele>808.93744</ele>
        <time>2015-10-17T08:26:15Z</time>
      </trkpt>
      <trkpt lat="45.33848" lon="4.34051">
        <ele>809.4791</ele>
        <time>2015-10-17T08:26:19Z</time>
      </trkpt>
      <trkpt lat="45.3386" lon="4.34053">
        <ele>810.03925</ele>
        <time>2015-10-17T08:26:23Z</time>
      </trkpt>
      <trkpt lat="45.3387" lon="4.34054">
        <ele>810.3537</ele>
        <time>2015-10-17T08:26:27Z</time>
      </trkpt>
      <trkpt lat="45.3388" lon="4.34058">
        <ele>812.486</ele>
        <time>2015-10-17T08:26:36Z</time>
      </trkpt>
      <trkpt lat="45.3389" lon="4.34057">
        <ele>814.2431</ele>
        <time>2015-10-17T08:29:15Z</time>
      </trkpt>
      <trkpt lat="45.33898" lon="4.34064">
        <ele>816.04517</ele>
        <time>2015-10-17T08:29:21Z</time>
      </trkpt>
      <trkpt lat="45.33908" lon="4.34074">
        <ele>817.78375</ele>
        <time>2015-10-17T08:29:27Z</time>
      </trkpt>
      <trkpt lat="45.33913" lon="4.34084">
        <ele>819.9108</ele>
        <time>2015-10-17T08:29:36Z</time>
      </trkpt>
      <trkpt lat="45.33919" lon="4.34095">
        <ele>821.37726</ele>
        <time>2015-10-17T08:29:46Z</time>
      </trkpt>
      <trkpt lat="45.33926" lon="4.34104">
        <ele>823.4964</ele>
        <time>2015-10-17T08:30:02Z</time>
      </trkpt>
      <trkpt lat="45.33935" lon="4.34114">
        <ele>827.4862</ele>
        <time>2015-10-17T08:30:30Z</time>
      </trkpt>
      <trkpt lat="45.33944" lon="4.34122">
        <ele>827.7795</ele>
        <time>2015-10-17T08:30:35Z</time>
      </trkpt>
      <trkpt lat="45.33953" lon="4.34131">
        <ele>828.63824</ele>
        <time>2015-10-17T08:30:41Z</time>
      </trkpt>
      <trkpt lat="45.33958" lon="4.34141">
        <ele>829.3252</ele>
        <time>2015-10-17T08:30:45Z</time>
      </trkpt>
      <trkpt lat="45.33963" lon="4.34153">
        <ele>829.5947</ele>
        <time>2015-10-17T08:30:49Z</time>
      </trkpt>
      <trkpt lat="45.33966" lon="4.34165">
        <ele>831.2382</ele>
        <time>2015-10-17T08:30:54Z</time>
      </trkpt>
      <trkpt lat="45.33974" lon="4.34174">
        <ele>832.6624</ele>
        <time>2015-10-17T08:31:16Z</time>
      </trkpt>
      <trkpt lat="45.33978" lon="4.34186">
        <ele>833.83826</ele>
        <time>2015-10-17T08:31:23Z</time>
      </trkpt>
      <trkpt lat="45.3398" lon="4.342">
        <ele>834.4856</ele>
        <time>2015-10-17T08:31:29Z</time>
      </trkpt>
      <trkpt lat="45.33985" lon="4.34211">
        <ele>835.46326</ele>
        <time>2015-10-17T08:31:35Z</time>
      </trkpt>
      <trkpt lat="45.33989" lon="4.34222">
        <ele>835.72217</ele>
        <time>2015-10-17T08:31:39Z</time>
      </trkpt>
      <trkpt lat="45.33998" lon="4.34229">
        <ele>836.3246</ele>
        <time>2015-10-17T08:31:44Z</time>
      </trkpt>
      <trkpt lat="45.34003" lon="4.3424">
        <ele>836.9957</ele>
        <time>2015-10-17T08:31:50Z</time>
      </trkpt>
      <trkpt lat="45.34009" lon="4.34253">
        <ele>837.12256</ele>
        <time>2015-10-17T08:31:59Z</time>
      </trkpt>
      <trkpt lat="45.34012" lon="4.34266">
        <ele>836.9244</ele>
        <time>2015-10-17T08:32:03Z</time>
      </trkpt>
      <trkpt lat="45.34014" lon="4.34279">
        <ele>834.8476</ele>
        <time>2015-10-17T08:32:06Z</time>
      </trkpt>
      <trkpt lat="45.34017" lon="4.34292">
        <ele>832.06793</ele>
        <time>2015-10-17T08:32:08Z</time>
      </trkpt>
      <trkpt lat="45.34022" lon="4.34306">
        <ele>831.90674</ele>
        <time>2015-10-17T08:32:10Z</time>
      </trkpt>
      <trkpt lat="45.34026" lon="4.34331">
        <ele>831.6293</ele>
        <time>2015-10-17T08:32:11Z</time>
      </trkpt>
      <trkpt lat="45.3403" lon="4.34342">
        <ele>830.7864</ele>
        <time>2015-10-17T08:32:12Z</time>
      </trkpt>
      <trkpt lat="45.34034" lon="4.34356">
        <ele>830.7864</ele>
        <time>2015-10-17T08:32:14Z</time>
      </trkpt>
      <trkpt lat="45.34037" lon="4.34378">
        <ele>830.7573</ele>
        <time>2015-10-17T08:32:16Z</time>
      </trkpt>
      <trkpt lat="45.34042" lon="4.34391">
        <ele>830.7124</ele>
        <time>2015-10-17T08:32:18Z</time>
      </trkpt>
      <trkpt lat="45.34048" lon="4.34405">
        <ele>831.64514</ele>
        <time>2015-10-17T08:32:22Z</time>
      </trkpt>
      <trkpt lat="45.34048" lon="4.34422">
        <ele>830.9502</ele>
        <time>2015-10-17T08:32:25Z</time>
      </trkpt>
      <trkpt lat="45.34047" lon="4.34437">
        <ele>830.7521</ele>
        <time>2015-10-17T08:32:28Z</time>
      </trkpt>
      <trkpt lat="45.34048" lon="4.3445">
        <ele>830.58826</ele>
        <time>2015-10-17T08:32:33Z</time>
      </trkpt>
      <trkpt lat="45.34056" lon="4.34459">
        <ele>831.4179</ele>
        <time>2015-10-17T08:33:00Z</time>
      </trkpt>
      <trkpt lat="45.34066" lon="4.34465">
        <ele>833.55286</ele>
        <time>2015-10-17T08:33:06Z</time>
      </trkpt>
      <trkpt lat="45.34074" lon="4.34469">
        <ele>835.2281</ele>
        <time>2015-10-17T08:33:11Z</time>
      </trkpt>
      <trkpt lat="45.34083" lon="4.34472">
        <ele>836.38275</ele>
        <time>2015-10-17T08:33:17Z</time>
      </trkpt>
      <trkpt lat="45.34092" lon="4.34476">
        <ele>837.8122</ele>
        <time>2015-10-17T08:33:23Z</time>
      </trkpt>
      <trkpt lat="45.34102" lon="4.34476">
        <ele>838.42255</ele>
        <time>2015-10-17T08:33:29Z</time>
      </trkpt>
      <trkpt lat="45.34111" lon="4.34478">
        <ele>840.4307</ele>
        <time>2015-10-17T08:33:37Z</time>
      </trkpt>
      <trkpt lat="45.34121" lon="4.34479">
        <ele>842.05304</ele>
        <time>2015-10-17T08:33:45Z</time>
      </trkpt>
      <trkpt lat="45.34131" lon="4.34482">
        <ele>843.48254</ele>
        <time>2015-10-17T08:33:57Z</time>
      </trkpt>
      <trkpt lat="45.3414" lon="4.34484">
        <ele>844.88824</ele>
        <time>2015-10-17T08:34:07Z</time>
      </trkpt>
      <trkpt lat="45.34149" lon="4.34486">
        <ele>848.2465</ele>
        <time>2015-10-17T08:34:22Z</time>
      </trkpt>
      <trkpt lat="45.34159" lon="4.34485">
        <ele>852.3315</ele>
        <time>2015-10-17T08:34:41Z</time>
      </trkpt>
      <trkpt lat="45.34168" lon="4.34485">
        <ele>853.7847</ele>
        <time>2015-10-17T08:34:49Z</time>
      </trkpt>
      <trkpt lat="45.34178" lon="4.34488">
        <ele>855.7506</ele>
        <time>2015-10-17T08:35:03Z</time>
      </trkpt>
      <trkpt lat="45.34186" lon="4.34495">
        <ele>857.6927</ele>
        <time>2015-10-17T08:35:18Z</time>
      </trkpt>
      <trkpt lat="45.34192" lon="4.34505">
        <ele>858.0388</ele>
        <time>2015-10-17T08:35:59Z</time>
      </trkpt>
      <trkpt lat="45.34187" lon="4.34519">
        <ele>857.6504</ele>
        <time>2015-10-17T08:36:59Z</time>
      </trkpt>
      <trkpt lat="45.34182" lon="4.34532">
        <ele>856.8075</ele>
        <time>2015-10-17T08:37:03Z</time>
      </trkpt>
      <trkpt lat="45.34179" lon="4.34544">
        <ele>856.70184</ele>
        <time>2015-10-17T08:37:08Z</time>
      </trkpt>
      <trkpt lat="45.34178" lon="4.34557">
        <ele>855.9567</ele>
        <time>2015-10-17T08:37:15Z</time>
      </trkpt>
      <trkpt lat="45.34181" lon="4.3457">
        <ele>855.91705</ele>
        <time>2015-10-17T08:37:20Z</time>
      </trkpt>
      <trkpt lat="45.34189" lon="4.34578">
        <ele>857.80365</ele>
        <time>2015-10-17T08:37:27Z</time>
      </trkpt>
      <trkpt lat="45.34199" lon="4.34584">
        <ele>859.1591</ele>
        <time>2015-10-17T08:37:33Z</time>
      </trkpt>
      <trkpt lat="45.34206" lon="4.34592">
        <ele>859.67175</ele>
        <time>2015-10-17T08:37:38Z</time>
      </trkpt>
      <trkpt lat="45.34215" lon="4.34601">
        <ele>859.97296</ele>
        <time>2015-10-17T08:37:44Z</time>
      </trkpt>
      <trkpt lat="45.34221" lon="4.34611">
        <ele>860.8793</ele>
        <time>2015-10-17T08:37:49Z</time>
      </trkpt>
      <trkpt lat="45.34227" lon="4.34621">
        <ele>862.03925</ele>
        <time>2015-10-17T08:37:54Z</time>
      </trkpt>
      <trkpt lat="45.34235" lon="4.34628">
        <ele>862.37213</ele>
        <time>2015-10-17T08:37:59Z</time>
      </trkpt>
      <trkpt lat="45.34243" lon="4.34635">
        <ele>863.1067</ele>
        <time>2015-10-17T08:38:04Z</time>
      </trkpt>
      <trkpt lat="45.34251" lon="4.34641">
        <ele>864.5917</ele>
        <time>2015-10-17T08:38:09Z</time>
      </trkpt>
      <trkpt lat="45.3426" lon="4.34649">
        <ele>865.62213</ele>
        <time>2015-10-17T08:38:15Z</time>
      </trkpt>
      <trkpt lat="45.34268" lon="4.34656">
        <ele>866.33026</ele>
        <time>2015-10-17T08:38:20Z</time>
      </trkpt>
      <trkpt lat="45.34278" lon="4.34662">
        <ele>866.9433</ele>
        <time>2015-10-17T08:38:26Z</time>
      </trkpt>
      <trkpt lat="45.34287" lon="4.34668">
        <ele>868.09</ele>
        <time>2015-10-17T08:38:32Z</time>
      </trkpt>
      <trkpt lat="45.34295" lon="4.34676">
        <ele>869.7335</ele>
        <time>2015-10-17T08:38:38Z</time>
      </trkpt>
      <trkpt lat="45.34302" lon="4.34683">
        <ele>870.7297</ele>
        <time>2015-10-17T08:38:51Z</time>
      </trkpt>
      <trkpt lat="45.34311" lon="4.3468">
        <ele>870.2937</ele>
        <time>2015-10-17T08:40:42Z</time>
      </trkpt>
      <trkpt lat="45.34319" lon="4.34672">
        <ele>870.0242</ele>
        <time>2015-10-17T08:40:49Z</time>
      </trkpt>
      <trkpt lat="45.34327" lon="4.3466">
        <ele>869.353</ele>
        <time>2015-10-17T08:40:53Z</time>
      </trkpt>
      <trkpt lat="45.34333" lon="4.34644">
        <ele>868.4837</ele>
        <time>2015-10-17T08:40:57Z</time>
      </trkpt>
      <trkpt lat="45.34337" lon="4.34631">
        <ele>867.9579</ele>
        <time>2015-10-17T08:41:00Z</time>
      </trkpt>
      <trkpt lat="45.34341" lon="4.34618">
        <ele>867.2604</ele>
        <time>2015-10-17T08:41:03Z</time>
      </trkpt>
      <trkpt lat="45.34346" lon="4.34602">
        <ele>866.4624</ele>
        <time>2015-10-17T08:41:06Z</time>
      </trkpt>
      <trkpt lat="45.3435" lon="4.3459">
        <ele>866.1004</ele>
        <time>2015-10-17T08:41:08Z</time>
      </trkpt>
      <trkpt lat="45.34355" lon="4.34575">
        <ele>864.9827</ele>
        <time>2015-10-17T08:41:10Z</time>
      </trkpt>
      <trkpt lat="45.34359" lon="4.34561">
        <ele>863.50305</ele>
        <time>2015-10-17T08:41:12Z</time>
      </trkpt>
      <trkpt lat="45.34368" lon="4.34544">
        <ele>862.9746</ele>
        <time>2015-10-17T08:41:14Z</time>
      </trkpt>
      <trkpt lat="45.34371" lon="4.34531">
        <ele>862.76056</ele>
        <time>2015-10-17T08:41:16Z</time>
      </trkpt>
      <trkpt lat="45.34378" lon="4.34513">
        <ele>862.07355</ele>
        <time>2015-10-17T08:41:18Z</time>
      </trkpt>
      <trkpt lat="45.3438" lon="4.34492">
        <ele>861.1065</ele>
        <time>2015-10-17T08:41:21Z</time>
      </trkpt>
      <trkpt lat="45.34381" lon="4.34476">
        <ele>860.5173</ele>
        <time>2015-10-17T08:41:23Z</time>
      </trkpt>
      <trkpt lat="45.34382" lon="4.34459">
        <ele>860.2451</ele>
        <time>2015-10-17T08:41:25Z</time>
      </trkpt>
      <trkpt lat="45.34383" lon="4.34443">
        <ele>859.1776</ele>
        <time>2015-10-17T08:41:27Z</time>
      </trkpt>
      <trkpt lat="45.34383" lon="4.34425">
        <ele>858.4193</ele>
        <time>2015-10-17T08:41:29Z</time>
      </trkpt>
      <trkpt lat="45.34382" lon="4.34406">
        <ele>857.8195</ele>
        <time>2015-10-17T08:41:31Z</time>
      </trkpt>
      <trkpt lat="45.34382" lon="4.34387">
        <ele>856.353</ele>
        <time>2015-10-17T08:41:33Z</time>
      </trkpt>
      <trkpt lat="45.34383" lon="4.3437">
        <ele>855.55505</ele>
        <time>2015-10-17T08:41:35Z</time>
      </trkpt>
      <trkpt lat="45.34384" lon="4.34353">
        <ele>854.39514</ele>
        <time>2015-10-17T08:41:37Z</time>
      </trkpt>
      <trkpt lat="45.34382" lon="4.34339">
        <ele>853.95917</ele>
        <time>2015-10-17T08:41:39Z</time>
      </trkpt>
      <trkpt lat="45.34378" lon="4.34325">
        <ele>853.23517</ele>
        <time>2015-10-17T08:41:41Z</time>
      </trkpt>
      <trkpt lat="45.34386" lon="4.34317">
        <ele>853.15326</ele>
        <time>2015-10-17T08:41:45Z</time>
      </trkpt>
      <trkpt lat="45.34377" lon="4.34315">
        <ele>852.6169</ele>
        <time>2015-10-17T08:43:05Z</time>
      </trkpt>
      <trkpt lat="45.34386" lon="4.34321">
        <ele>854.25775</ele>
        <time>2015-10-17T08:43:56Z</time>
      </trkpt>
      <trkpt lat="45.34391" lon="4.34334">
        <ele>855.4653</ele>
        <time>2015-10-17T08:44:02Z</time>
      </trkpt>
      <trkpt lat="45.34398" lon="4.34346">
        <ele>856.0122</ele>
        <time>2015-10-17T08:44:07Z</time>
      </trkpt>
      <trkpt lat="45.34403" lon="4.34357">
        <ele>856.87885</ele>
        <time>2015-10-17T08:44:12Z</time>
      </trkpt>
      <trkpt lat="45.3441" lon="4.34368">
        <ele>856.8075</ele>
        <time>2015-10-17T08:44:17Z</time>
      </trkpt>
      <trkpt lat="45.34419" lon="4.34376">
        <ele>858.451</ele>
        <time>2015-10-17T08:44:22Z</time>
      </trkpt>
      <trkpt lat="45.34425" lon="4.34387">
        <ele>858.75226</ele>
        <time>2015-10-17T08:44:27Z</time>
      </trkpt>
      <trkpt lat="45.34432" lon="4.34397">
        <ele>858.998</ele>
        <time>2015-10-17T08:44:32Z</time>
      </trkpt>
      <trkpt lat="45.34439" lon="4.34408">
        <ele>858.6307</ele>
        <time>2015-10-17T08:44:38Z</time>
      </trkpt>
      <trkpt lat="45.34446" lon="4.3442">
        <ele>858.36383</ele>
        <time>2015-10-17T08:44:43Z</time>
      </trkpt>
      <trkpt lat="45.34454" lon="4.34428">
        <ele>857.63983</ele>
        <time>2015-10-17T08:44:46Z</time>
      </trkpt>
      <trkpt lat="45.34462" lon="4.34439">
        <ele>856.6701</ele>
        <time>2015-10-17T08:44:49Z</time>
      </trkpt>
      <trkpt lat="45.34472" lon="4.34449">
        <ele>856.86035</ele>
        <time>2015-10-17T08:44:52Z</time>
      </trkpt>
      <trkpt lat="45.34479" lon="4.34461">
        <ele>855.1244</ele>
        <time>2015-10-17T08:44:55Z</time>
      </trkpt>
      <trkpt lat="45.34484" lon="4.34474">
        <ele>853.6262</ele>
        <time>2015-10-17T08:44:58Z</time>
      </trkpt>
      <trkpt lat="45.34489" lon="4.34489">
        <ele>852.75165</ele>
        <time>2015-10-17T08:45:00Z</time>
      </trkpt>
      <trkpt lat="45.34495" lon="4.34504">
        <ele>850.64044</ele>
        <time>2015-10-17T08:45:02Z</time>
      </trkpt>
      <trkpt lat="45.345" lon="4.34518">
        <ele>850.4581</ele>
        <time>2015-10-17T08:45:04Z</time>
      </trkpt>
      <trkpt lat="45.34506" lon="4.34532">
        <ele>850.1516</ele>
        <time>2015-10-17T08:45:06Z</time>
      </trkpt>
      <trkpt lat="45.34511" lon="4.34548">
        <ele>848.86487</ele>
        <time>2015-10-17T08:45:08Z</time>
      </trkpt>
      <trkpt lat="45.34517" lon="4.34563">
        <ele>847.8264</ele>
        <time>2015-10-17T08:45:10Z</time>
      </trkpt>
      <trkpt lat="45.34525" lon="4.34577">
        <ele>845.92664</ele>
        <time>2015-10-17T08:45:12Z</time>
      </trkpt>
      <trkpt lat="45.34533" lon="4.34592">
        <ele>845.34</ele>
        <time>2015-10-17T08:45:14Z</time>
      </trkpt>
      <trkpt lat="45.3454" lon="4.34608">
        <ele>845.1155</ele>
        <time>2015-10-17T08:45:16Z</time>
      </trkpt>
      <trkpt lat="45.34546" lon="4.34623">
        <ele>842.9752</ele>
        <time>2015-10-17T08:45:18Z</time>
      </trkpt>
      <trkpt lat="45.34552" lon="4.34639">
        <ele>842.3622</ele>
        <time>2015-10-17T08:45:20Z</time>
      </trkpt>
      <trkpt lat="45.3456" lon="4.34653">
        <ele>842.03723</ele>
        <time>2015-10-17T08:45:22Z</time>
      </trkpt>
      <trkpt lat="45.3457" lon="4.34668">
        <ele>840.8984</ele>
        <time>2015-10-17T08:45:24Z</time>
      </trkpt>
      <trkpt lat="45.34579" lon="4.34683">
        <ele>840.8667</ele>
        <time>2015-10-17T08:45:26Z</time>
      </trkpt>
      <trkpt lat="45.34588" lon="4.34697">
        <ele>840.47565</ele>
        <time>2015-10-17T08:45:28Z</time>
      </trkpt>
      <trkpt lat="45.34596" lon="4.34707">
        <ele>840.2061</ele>
        <time>2015-10-17T08:45:30Z</time>
      </trkpt>
      <trkpt lat="45.34604" lon="4.34716">
        <ele>841.3687</ele>
        <time>2015-10-17T08:45:33Z</time>
      </trkpt>
      <trkpt lat="45.34613" lon="4.34718">
        <ele>843.09674</ele>
        <time>2015-10-17T08:45:39Z</time>
      </trkpt>
      <trkpt lat="45.34622" lon="4.34717">
        <ele>843.4878</ele>
        <time>2015-10-17T08:45:46Z</time>
      </trkpt>
      <trkpt lat="45.34632" lon="4.3472">
        <ele>844.6927</ele>
        <time>2015-10-17T08:45:53Z</time>
      </trkpt>
      <trkpt lat="45.34642" lon="4.34725">
        <ele>845.52234</ele>
        <time>2015-10-17T08:45:58Z</time>
      </trkpt>
      <trkpt lat="45.3465" lon="4.34733">
        <ele>845.7417</ele>
        <time>2015-10-17T08:46:03Z</time>
      </trkpt>
      <trkpt lat="45.34659" lon="4.34737">
        <ele>846.87787</ele>
        <time>2015-10-17T08:46:12Z</time>
      </trkpt>
      <trkpt lat="45.34668" lon="4.3474">
        <ele>847.9823</ele>
        <time>2015-10-17T08:46:18Z</time>
      </trkpt>
      <trkpt lat="45.34677" lon="4.34743">
        <ele>848.125</ele>
        <time>2015-10-17T08:46:23Z</time>
      </trkpt>
      <trkpt lat="45.34687" lon="4.34746">
        <ele>849.1661</ele>
        <time>2015-10-17T08:46:30Z</time>
      </trkpt>
      <trkpt lat="45.34696" lon="4.34752">
        <ele>849.84515</ele>
        <time>2015-10-17T08:46:35Z</time>
      </trkpt>
      <trkpt lat="45.34704" lon="4.34759">
        <ele>850.04065</ele>
        <time>2015-10-17T08:46:41Z</time>
      </trkpt>
      <trkpt lat="45.34713" lon="4.34762">
        <ele>849.78436</ele>
        <time>2015-10-17T08:46:48Z</time>
      </trkpt>
      <trkpt lat="45.34722" lon="4.34766">
        <ele>849.84515</ele>
        <time>2015-10-17T08:46:55Z</time>
      </trkpt>
      <trkpt lat="45.34732" lon="4.34772">
        <ele>849.80023</ele>
        <time>2015-10-17T08:47:01Z</time>
      </trkpt>
      <trkpt lat="45.34741" lon="4.34778">
        <ele>848.65344</ele>
        <time>2015-10-17T08:47:05Z</time>
      </trkpt>
      <trkpt lat="45.3475" lon="4.34783">
        <ele>848.81995</ele>
        <time>2015-10-17T08:47:08Z</time>
      </trkpt>
      <trkpt lat="45.34759" lon="4.34789">
        <ele>847.0417</ele>
        <time>2015-10-17T08:47:11Z</time>
      </trkpt>
      <trkpt lat="45.34769" lon="4.34797">
        <ele>847.19226</ele>
        <time>2015-10-17T08:47:14Z</time>
      </trkpt>
      <trkpt lat="45.34776" lon="4.34807">
        <ele>845.34</ele>
        <time>2015-10-17T08:47:16Z</time>
      </trkpt>
      <trkpt lat="45.34783" lon="4.34818">
        <ele>845.00977</ele>
        <time>2015-10-17T08:47:17Z</time>
      </trkpt>
      <trkpt lat="45.34793" lon="4.34829">
        <ele>844.4972</ele>
        <time>2015-10-17T08:47:19Z</time>
      </trkpt>
      <trkpt lat="45.34801" lon="4.34842">
        <ele>842.8246</ele>
        <time>2015-10-17T08:47:21Z</time>
      </trkpt>
      <trkpt lat="45.34809" lon="4.34857">
        <ele>840.85345</ele>
        <time>2015-10-17T08:47:23Z</time>
      </trkpt>
      <trkpt lat="45.34817" lon="4.34878">
        <ele>839.33154</ele>
        <time>2015-10-17T08:47:25Z</time>
      </trkpt>
      <trkpt lat="45.34823" lon="4.34891">
        <ele>838.35126</ele>
        <time>2015-10-17T08:47:27Z</time>
      </trkpt>
      <trkpt lat="45.34831" lon="4.34906">
        <ele>837.7541</ele>
        <time>2015-10-17T08:47:29Z</time>
      </trkpt>
      <trkpt lat="45.34841" lon="4.34919">
        <ele>837.0882</ele>
        <time>2015-10-17T08:47:31Z</time>
      </trkpt>
      <trkpt lat="45.34852" lon="4.34927">
        <ele>837.17804</ele>
        <time>2015-10-17T08:47:33Z</time>
      </trkpt>
      <trkpt lat="45.34864" lon="4.3493">
        <ele>837.10406</ele>
        <time>2015-10-17T08:47:36Z</time>
      </trkpt>
      <trkpt lat="45.34875" lon="4.34928">
        <ele>836.21893</ele>
        <time>2015-10-17T08:47:39Z</time>
      </trkpt>
      <trkpt lat="45.34878" lon="4.34915">
        <ele>836.8689</ele>
        <time>2015-10-17T08:48:23Z</time>
      </trkpt>
      <trkpt lat="45.34886" lon="4.34904">
        <ele>836.1872</ele>
        <time>2015-10-17T08:48:28Z</time>
      </trkpt>
      <trkpt lat="45.34895" lon="4.34891">
        <ele>836.1317</ele>
        <time>2015-10-17T08:48:34Z</time>
      </trkpt>
      <trkpt lat="45.34897" lon="4.34876">
        <ele>835.64557</ele>
        <time>2015-10-17T08:48:39Z</time>
      </trkpt>
      <trkpt lat="45.349" lon="4.34859">
        <ele>835.4659</ele>
        <time>2015-10-17T08:48:42Z</time>
      </trkpt>
      <trkpt lat="45.34903" lon="4.3484">
        <ele>835.5689</ele>
        <time>2015-10-17T08:48:47Z</time>
      </trkpt>
      <trkpt lat="45.34904" lon="4.34827">
        <ele>836.0683</ele>
        <time>2015-10-17T08:48:51Z</time>
      </trkpt>
      <trkpt lat="45.34906" lon="4.34814">
        <ele>835.96265</ele>
        <time>2015-10-17T08:48:55Z</time>
      </trkpt>
      <trkpt lat="45.34911" lon="4.34801">
        <ele>835.8279</ele>
        <time>2015-10-17T08:49:00Z</time>
      </trkpt>
      <trkpt lat="45.34916" lon="4.34788">
        <ele>835.8041</ele>
        <time>2015-10-17T08:49:06Z</time>
      </trkpt>
      <trkpt lat="45.34917" lon="4.34773">
        <ele>835.23865</ele>
        <time>2015-10-17T08:49:10Z</time>
      </trkpt>
      <trkpt lat="45.34917" lon="4.3476">
        <ele>835.49756</ele>
        <time>2015-10-17T08:49:13Z</time>
      </trkpt>
      <trkpt lat="45.34919" lon="4.34743">
        <ele>834.9031</ele>
        <time>2015-10-17T08:49:17Z</time>
      </trkpt>
      <trkpt lat="45.34919" lon="4.34729">
        <ele>835.5108</ele>
        <time>2015-10-17T08:49:21Z</time>
      </trkpt>
      <trkpt lat="45.34919" lon="4.34715">
        <ele>835.61646</ele>
        <time>2015-10-17T08:49:26Z</time>
      </trkpt>
      <trkpt lat="45.34919" lon="4.34701">
        <ele>836.713</ele>
        <time>2015-10-17T08:49:30Z</time>
      </trkpt>
      <trkpt lat="45.34918" lon="4.34688">
        <ele>836.9429</ele>
        <time>2015-10-17T08:49:34Z</time>
      </trkpt>
      <trkpt lat="45.34918" lon="4.34674">
        <ele>836.60736</ele>
        <time>2015-10-17T08:49:38Z</time>
      </trkpt>
      <trkpt lat="45.34921" lon="4.3466">
        <ele>836.1714</ele>
        <time>2015-10-17T08:49:42Z</time>
      </trkpt>
      <trkpt lat="45.34924" lon="4.34645">
        <ele>836.20306</ele>
        <time>2015-10-17T08:49:46Z</time>
      </trkpt>
      <trkpt lat="45.3493" lon="4.34636">
        <ele>835.4051</ele>
        <time>2015-10-17T08:49:49Z</time>
      </trkpt>
      <trkpt lat="45.34937" lon="4.34622">
        <ele>835.3734</ele>
        <time>2015-10-17T08:49:53Z</time>
      </trkpt>
      <trkpt lat="45.34943" lon="4.3461">
        <ele>835.0458</ele>
        <time>2015-10-17T08:49:57Z</time>
      </trkpt>
      <trkpt lat="45.3495" lon="4.34598">
        <ele>834.3667</ele>
        <time>2015-10-17T08:50:01Z</time>
      </trkpt>
      <trkpt lat="45.34956" lon="4.34587">
        <ele>835.088</ele>
        <time>2015-10-17T08:50:05Z</time>
      </trkpt>
      <trkpt lat="45.34963" lon="4.34577">
        <ele>834.8793</ele>
        <time>2015-10-17T08:50:09Z</time>
      </trkpt>
      <trkpt lat="45.34967" lon="4.34564">
        <ele>834.73926</ele>
        <time>2015-10-17T08:50:13Z</time>
      </trkpt>
      <trkpt lat="45.34972" lon="4.34552">
        <ele>835.2096</ele>
        <time>2015-10-17T08:50:17Z</time>
      </trkpt>
      <trkpt lat="45.34979" lon="4.34541">
        <ele>834.8634</ele>
        <time>2015-10-17T08:50:21Z</time>
      </trkpt>
      <trkpt lat="45.34981" lon="4.34528">
        <ele>835.08276</ele>
        <time>2015-10-17T08:50:25Z</time>
      </trkpt>
      <trkpt lat="45.34985" lon="4.34514">
        <ele>835.6746</ele>
        <time>2015-10-17T08:50:30Z</time>
      </trkpt>
      <trkpt lat="45.34991" lon="4.34504">
        <ele>836.12646</ele>
        <time>2015-10-17T08:50:34Z</time>
      </trkpt>
      <trkpt lat="45.34996" lon="4.34491">
        <ele>837.3313</ele>
        <time>2015-10-17T08:50:39Z</time>
      </trkpt>
      <trkpt lat="45.34998" lon="4.34477">
        <ele>838.04474</ele>
        <time>2015-10-17T08:50:45Z</time>
      </trkpt>
      <trkpt lat="45.35" lon="4.34464">
        <ele>839.0382</ele>
        <time>2015-10-17T08:50:49Z</time>
      </trkpt>
      <trkpt lat="45.35" lon="4.34449">
        <ele>839.5799</ele>
        <time>2015-10-17T08:50:54Z</time>
      </trkpt>
      <trkpt lat="45.35004" lon="4.34435">
        <ele>840.9116</ele>
        <time>2015-10-17T08:51:00Z</time>
      </trkpt>
      <trkpt lat="45.35006" lon="4.34423">
        <ele>841.27356</ele>
        <time>2015-10-17T08:51:05Z</time>
      </trkpt>
      <trkpt lat="45.35009" lon="4.34409">
        <ele>841.81525</ele>
        <time>2015-10-17T08:51:13Z</time>
      </trkpt>
      <trkpt lat="45.35015" lon="4.34399">
        <ele>842.3622</ele>
        <time>2015-10-17T08:51:18Z</time>
      </trkpt>
      <trkpt lat="45.35022" lon="4.34391">
        <ele>843.08356</ele>
        <time>2015-10-17T08:51:23Z</time>
      </trkpt>
      <trkpt lat="45.35028" lon="4.34381">
        <ele>844.0903</ele>
        <time>2015-10-17T08:51:28Z</time>
      </trkpt>
      <trkpt lat="45.35034" lon="4.34369">
        <ele>843.82336</ele>
        <time>2015-10-17T08:51:34Z</time>
      </trkpt>
      <trkpt lat="45.35045" lon="4.3436">
        <ele>844.7535</ele>
        <time>2015-10-17T08:51:40Z</time>
      </trkpt>
      <trkpt lat="45.35052" lon="4.34352">
        <ele>845.0547</ele>
        <time>2015-10-17T08:51:46Z</time>
      </trkpt>
      <trkpt lat="45.3506" lon="4.34342">
        <ele>845.0732</ele>
        <time>2015-10-17T08:51:53Z</time>
      </trkpt>
      <trkpt lat="45.35068" lon="4.34334">
        <ele>844.88824</ele>
        <time>2015-10-17T08:51:57Z</time>
      </trkpt>
      <trkpt lat="45.35077" lon="4.34326">
        <ele>844.8565</ele>
        <time>2015-10-17T08:52:02Z</time>
      </trkpt>
      <trkpt lat="45.35086" lon="4.34318">
        <ele>846.01117</ele>
        <time>2015-10-17T08:52:07Z</time>
      </trkpt>
      <trkpt lat="45.35094" lon="4.34308">
        <ele>845.4589</ele>
        <time>2015-10-17T08:52:12Z</time>
      </trkpt>
      <trkpt lat="45.351" lon="4.34295">
        <ele>845.2502</ele>
        <time>2015-10-17T08:52:17Z</time>
      </trkpt>
      <trkpt lat="45.35106" lon="4.34283">
        <ele>845.5356</ele>
        <time>2015-10-17T08:52:22Z</time>
      </trkpt>
      <trkpt lat="45.3511" lon="4.34271">
        <ele>846.8012</ele>
        <time>2015-10-17T08:52:26Z</time>
      </trkpt>
      <trkpt lat="45.35116" lon="4.34259">
        <ele>847.17645</ele>
        <time>2015-10-17T08:52:31Z</time>
      </trkpt>
      <trkpt lat="45.35123" lon="4.34248">
        <ele>847.5648</ele>
        <time>2015-10-17T08:52:36Z</time>
      </trkpt>
      <trkpt lat="45.35129" lon="4.34238">
        <ele>848.05365</ele>
        <time>2015-10-17T08:52:41Z</time>
      </trkpt>
      <trkpt lat="45.35135" lon="4.34226">
        <ele>848.8675</ele>
        <time>2015-10-17T08:52:47Z</time>
      </trkpt>
      <trkpt lat="45.35141" lon="4.34216">
        <ele>850.0961</ele>
        <time>2015-10-17T08:52:52Z</time>
      </trkpt>
      <trkpt lat="45.35148" lon="4.34205">
        <ele>850.7488</ele>
        <time>2015-10-17T08:52:58Z</time>
      </trkpt>
      <trkpt lat="45.35153" lon="4.34195">
        <ele>851.65247</ele>
        <time>2015-10-17T08:53:04Z</time>
      </trkpt>
      <trkpt lat="45.35159" lon="4.34184">
        <ele>852.87317</ele>
        <time>2015-10-17T08:53:10Z</time>
      </trkpt>
      <trkpt lat="45.35161" lon="4.34171">
        <ele>853.3409</ele>
        <time>2015-10-17T08:53:16Z</time>
      </trkpt>
      <trkpt lat="45.35164" lon="4.34157">
        <ele>853.87726</ele>
        <time>2015-10-17T08:53:22Z</time>
      </trkpt>
      <trkpt lat="45.35169" lon="4.34145">
        <ele>854.1679</ele>
        <time>2015-10-17T08:53:34Z</time>
      </trkpt>
      <trkpt lat="45.35175" lon="4.34133">
        <ele>854.3053</ele>
        <time>2015-10-17T08:53:39Z</time>
      </trkpt>
      <trkpt lat="45.35184" lon="4.34124">
        <ele>853.89575</ele>
        <time>2015-10-17T08:53:44Z</time>
      </trkpt>
      <trkpt lat="45.35192" lon="4.34118">
        <ele>854.3793</ele>
        <time>2015-10-17T08:53:48Z</time>
      </trkpt>
      <trkpt lat="45.35199" lon="4.34108">
        <ele>854.7624</ele>
        <time>2015-10-17T08:53:53Z</time>
      </trkpt>
      <trkpt lat="45.35205" lon="4.34096">
        <ele>854.4559</ele>
        <time>2015-10-17T08:53:58Z</time>
      </trkpt>
      <trkpt lat="45.35209" lon="4.34083">
        <ele>854.10974</ele>
        <time>2015-10-17T08:54:03Z</time>
      </trkpt>
      <trkpt lat="45.35204" lon="4.34072">
        <ele>853.9433</ele>
        <time>2015-10-17T08:55:18Z</time>
      </trkpt>
      <trkpt lat="45.35197" lon="4.34061">
        <ele>852.82825</ele>
        <time>2015-10-17T08:57:24Z</time>
      </trkpt>
      <trkpt lat="45.35189" lon="4.34053">
        <ele>852.1941</ele>
        <time>2015-10-17T08:57:28Z</time>
      </trkpt>
      <trkpt lat="45.35181" lon="4.34045">
        <ele>850.94696</ele>
        <time>2015-10-17T08:57:31Z</time>
      </trkpt>
      <trkpt lat="45.35172" lon="4.3404">
        <ele>850.58234</ele>
        <time>2015-10-17T08:57:34Z</time>
      </trkpt>
      <trkpt lat="45.35161" lon="4.34041">
        <ele>848.95734</ele>
        <time>2015-10-17T08:57:38Z</time>
      </trkpt>
      <trkpt lat="45.35151" lon="4.34043">
        <ele>848.47375</ele>
        <time>2015-10-17T08:57:41Z</time>
      </trkpt>
      <trkpt lat="45.35141" lon="4.34037">
        <ele>847.2081</ele>
        <time>2015-10-17T08:57:44Z</time>
      </trkpt>
      <trkpt lat="45.35134" lon="4.34029">
        <ele>846.20935</ele>
        <time>2015-10-17T08:57:47Z</time>
      </trkpt>
      <trkpt lat="45.35125" lon="4.3402">
        <ele>844.46545</ele>
        <time>2015-10-17T08:57:51Z</time>
      </trkpt>
      <trkpt lat="45.35117" lon="4.34012">
        <ele>843.5909</ele>
        <time>2015-10-17T08:57:54Z</time>
      </trkpt>
      <trkpt lat="45.35108" lon="4.34002">
        <ele>842.5419</ele>
        <time>2015-10-17T08:57:57Z</time>
      </trkpt>
      <trkpt lat="45.35099" lon="4.33994">
        <ele>842.35693</ele>
        <time>2015-10-17T08:58:00Z</time>
      </trkpt>
      <trkpt lat="45.3509" lon="4.33985">
        <ele>842.07153</ele>
        <time>2015-10-17T08:58:04Z</time>
      </trkpt>
      <trkpt lat="45.35082" lon="4.33977">
        <ele>841.6647</ele>
        <time>2015-10-17T08:59:06Z</time>
      </trkpt>
      <trkpt lat="45.35074" lon="4.33971">
        <ele>841.11505</ele>
        <time>2015-10-17T08:59:18Z</time>
      </trkpt>
      <trkpt lat="45.35065" lon="4.33963">
        <ele>841.61975</ele>
        <time>2015-10-17T08:59:27Z</time>
      </trkpt>
      <trkpt lat="45.35055" lon="4.33957">
        <ele>841.0173</ele>
        <time>2015-10-17T08:59:33Z</time>
      </trkpt>
      <trkpt lat="45.35046" lon="4.33956">
        <ele>840.77155</ele>
        <time>2015-10-17T08:59:38Z</time>
      </trkpt>
      <trkpt lat="45.35036" lon="4.33957">
        <ele>840.4175</ele>
        <time>2015-10-17T08:59:42Z</time>
      </trkpt>
      <trkpt lat="45.35024" lon="4.33959">
        <ele>839.57196</ele>
        <time>2015-10-17T08:59:46Z</time>
      </trkpt>
      <trkpt lat="45.35015" lon="4.33961">
        <ele>839.10693</ele>
        <time>2015-10-17T08:59:49Z</time>
      </trkpt>
      <trkpt lat="45.35005" lon="4.33963">
        <ele>838.94836</ele>
        <time>2015-10-17T08:59:52Z</time>
      </trkpt>
      <trkpt lat="45.34996" lon="4.33964">
        <ele>838.6392</ele>
        <time>2015-10-17T08:59:55Z</time>
      </trkpt>
      <trkpt lat="45.34984" lon="4.33966">
        <ele>837.7197</ele>
        <time>2015-10-17T08:59:59Z</time>
      </trkpt>
      <trkpt lat="45.34972" lon="4.33968">
        <ele>836.8346</ele>
        <time>2015-10-17T09:00:03Z</time>
      </trkpt>
      <trkpt lat="45.34961" lon="4.33968">
        <ele>834.47235</ele>
        <time>2015-10-17T09:00:07Z</time>
      </trkpt>
      <trkpt lat="45.34951" lon="4.33968">
        <ele>833.51324</ele>
        <time>2015-10-17T09:00:10Z</time>
      </trkpt>
      <trkpt lat="45.34942" lon="4.3397">
        <ele>831.86975</ele>
        <time>2015-10-17T09:00:13Z</time>
      </trkpt>
      <trkpt lat="45.34932" lon="4.33972">
        <ele>830.6807</ele>
        <time>2015-10-17T09:00:16Z</time>
      </trkpt>
      <trkpt lat="45.3492" lon="4.33977">
        <ele>829.6687</ele>
        <time>2015-10-17T09:00:19Z</time>
      </trkpt>
      <trkpt lat="45.34907" lon="4.33982">
        <ele>828.69635</ele>
        <time>2015-10-17T09:00:22Z</time>
      </trkpt>
      <trkpt lat="45.34895" lon="4.33988">
        <ele>827.73456</ele>
        <time>2015-10-17T09:00:25Z</time>
      </trkpt>
      <trkpt lat="45.34883" lon="4.33992">
        <ele>827.1797</ele>
        <time>2015-10-17T09:00:28Z</time>
      </trkpt>
      <trkpt lat="45.34871" lon="4.33998">
        <ele>825.5547</ele>
        <time>2015-10-17T09:00:31Z</time>
      </trkpt>
      <trkpt lat="45.34861" lon="4.34004">
        <ele>825.20856</ele>
        <time>2015-10-17T09:00:34Z</time>
      </trkpt>
      <trkpt lat="45.34849" lon="4.34011">
        <ele>823.174</ele>
        <time>2015-10-17T09:00:37Z</time>
      </trkpt>
      <trkpt lat="45.34838" lon="4.34019">
        <ele>821.0311</ele>
        <time>2015-10-17T09:00:40Z</time>
      </trkpt>
      <trkpt lat="45.34828" lon="4.34025">
        <ele>819.18945</ele>
        <time>2015-10-17T09:00:43Z</time>
      </trkpt>
      <trkpt lat="45.34816" lon="4.34022">
        <ele>818.3968</ele>
        <time>2015-10-17T09:00:46Z</time>
      </trkpt>
      <trkpt lat="45.34806" lon="4.3401">
        <ele>818.13257</ele>
        <time>2015-10-17T09:00:49Z</time>
      </trkpt>
      <trkpt lat="45.34798" lon="4.33998">
        <ele>818.25146</ele>
        <time>2015-10-17T09:00:52Z</time>
      </trkpt>
      <trkpt lat="45.34794" lon="4.33984">
        <ele>817.78644</ele>
        <time>2015-10-17T09:00:56Z</time>
      </trkpt>
      <trkpt lat="45.3479" lon="4.3397">
        <ele>818.1008</ele>
        <time>2015-10-17T09:01:00Z</time>
      </trkpt>
      <trkpt lat="45.34795" lon="4.33957">
        <ele>819.4405</ele>
        <time>2015-10-17T09:01:04Z</time>
      </trkpt>
      <trkpt lat="45.34801" lon="4.33945">
        <ele>819.4246</ele>
        <time>2015-10-17T09:01:08Z</time>
      </trkpt>
      <trkpt lat="45.34803" lon="4.33932">
        <ele>820.7405</ele>
        <time>2015-10-17T09:01:15Z</time>
      </trkpt>
      <trkpt lat="45.34802" lon="4.33919">
        <ele>822.1118</ele>
        <time>2015-10-17T09:01:21Z</time>
      </trkpt>
      <trkpt lat="45.34802" lon="4.33904">
        <ele>822.34436</ele>
        <time>2015-10-17T09:01:24Z</time>
      </trkpt>
      <trkpt lat="45.34801" lon="4.33889">
        <ele>823.58887</ele>
        <time>2015-10-17T09:01:29Z</time>
      </trkpt>
      <trkpt lat="45.348" lon="4.33876">
        <ele>824.72766</ele>
        <time>2015-10-17T09:01:36Z</time>
      </trkpt>
      <trkpt lat="45.34795" lon="4.33864">
        <ele>826.78864</ele>
        <time>2015-10-17T09:01:43Z</time>
      </trkpt>
      <trkpt lat="45.34787" lon="4.33854">
        <ele>826.88904</ele>
        <time>2015-10-17T09:01:51Z</time>
      </trkpt>
      <trkpt lat="45.34779" lon="4.33846">
        <ele>827.5919</ele>
        <time>2015-10-17T09:01:58Z</time>
      </trkpt>
      <trkpt lat="45.34771" lon="4.33839">
        <ele>827.4307</ele>
        <time>2015-10-17T09:02:05Z</time>
      </trkpt>
      <trkpt lat="45.34762" lon="4.33833">
        <ele>827.4175</ele>
        <time>2015-10-17T09:02:10Z</time>
      </trkpt>
      <trkpt lat="45.34753" lon="4.33829">
        <ele>827.85614</ele>
        <time>2015-10-17T09:02:15Z</time>
      </trkpt>
      <trkpt lat="45.34744" lon="4.33825">
        <ele>828.0649</ele>
        <time>2015-10-17T09:02:20Z</time>
      </trkpt>
      <trkpt lat="45.34735" lon="4.33818">
        <ele>829.01874</ele>
        <time>2015-10-17T09:02:25Z</time>
      </trkpt>
      <trkpt lat="45.34725" lon="4.33815">
        <ele>829.39655</ele>
        <time>2015-10-17T09:02:30Z</time>
      </trkpt>
      <trkpt lat="45.34716" lon="4.33823">
        <ele>830.61993</ele>
        <time>2015-10-17T09:02:37Z</time>
      </trkpt>
      <trkpt lat="45.34709" lon="4.33832">
        <ele>831.9226</ele>
        <time>2015-10-17T09:02:45Z</time>
      </trkpt>
      <trkpt lat="45.34701" lon="4.3384">
        <ele>832.9372</ele>
        <time>2015-10-17T09:02:51Z</time>
      </trkpt>
      <trkpt lat="45.34694" lon="4.33849">
        <ele>833.65857</ele>
        <time>2015-10-17T09:02:59Z</time>
      </trkpt>
      <trkpt lat="45.34685" lon="4.33853">
        <ele>836.34576</ele>
        <time>2015-10-17T09:03:07Z</time>
      </trkpt>
      <trkpt lat="45.34675" lon="4.3385">
        <ele>837.0697</ele>
        <time>2015-10-17T09:03:16Z</time>
      </trkpt>
      <trkpt lat="45.34667" lon="4.33844">
        <ele>838.89557</ele>
        <time>2015-10-17T09:03:24Z</time>
      </trkpt>
      <trkpt lat="45.34658" lon="4.33837">
        <ele>840.21136</ele>
        <time>2015-10-17T09:03:34Z</time>
      </trkpt>
      <trkpt lat="45.34649" lon="4.33834">
        <ele>840.71606</ele>
        <time>2015-10-17T09:03:41Z</time>
      </trkpt>
      <trkpt lat="45.34641" lon="4.3384">
        <ele>841.4216</ele>
        <time>2015-10-17T09:03:47Z</time>
      </trkpt>
      <trkpt lat="45.34634" lon="4.3385">
        <ele>842.1482</ele>
        <time>2015-10-17T09:03:52Z</time>
      </trkpt>
      <trkpt lat="45.34628" lon="4.3386">
        <ele>842.8114</ele>
        <time>2015-10-17T09:03:57Z</time>
      </trkpt>
      <trkpt lat="45.34621" lon="4.3387">
        <ele>843.3504</ele>
        <time>2015-10-17T09:04:13Z</time>
      </trkpt>
      <trkpt lat="45.34615" lon="4.33882">
        <ele>842.6502</ele>
        <time>2015-10-17T09:04:18Z</time>
      </trkpt>
      <trkpt lat="45.34609" lon="4.33893">
        <ele>843.26324</ele>
        <time>2015-10-17T09:04:23Z</time>
      </trkpt>
      <trkpt lat="45.34604" lon="4.33905">
        <ele>843.6992</ele>
        <time>2015-10-17T09:04:28Z</time>
      </trkpt>
      <trkpt lat="45.34598" lon="4.33916">
        <ele>844.42316</ele>
        <time>2015-10-17T09:04:33Z</time>
      </trkpt>
      <trkpt lat="45.34588" lon="4.33921">
        <ele>844.3122</ele>
        <time>2015-10-17T09:04:39Z</time>
      </trkpt>
      <trkpt lat="45.34579" lon="4.33912">
        <ele>845.414</ele>
        <time>2015-10-17T09:04:44Z</time>
      </trkpt>
      <trkpt lat="45.34572" lon="4.33904">
        <ele>845.43256</ele>
        <time>2015-10-17T09:04:50Z</time>
      </trkpt>
      <trkpt lat="45.34563" lon="4.33896">
        <ele>845.2502</ele>
        <time>2015-10-17T09:04:56Z</time>
      </trkpt>
      <trkpt lat="45.34555" lon="4.33889">
        <ele>845.5593</ele>
        <time>2015-10-17T09:05:01Z</time>
      </trkpt>
      <trkpt lat="45.34548" lon="4.3388">
        <ele>846.5608</ele>
        <time>2015-10-17T09:05:07Z</time>
      </trkpt>
      <trkpt lat="45.34542" lon="4.33871">
        <ele>846.41016</ele>
        <time>2015-10-17T09:05:13Z</time>
      </trkpt>
      <trkpt lat="45.34535" lon="4.33861">
        <ele>846.3943</ele>
        <time>2015-10-17T09:05:20Z</time>
      </trkpt>
      <trkpt lat="45.34526" lon="4.3385">
        <ele>846.825</ele>
        <time>2015-10-17T09:05:26Z</time>
      </trkpt>
      <trkpt lat="45.34518" lon="4.3384">
        <ele>846.26483</ele>
        <time>2015-10-17T09:05:31Z</time>
      </trkpt>
      <trkpt lat="45.34511" lon="4.33832">
        <ele>845.5805</ele>
        <time>2015-10-17T09:05:36Z</time>
      </trkpt>
      <trkpt lat="45.34502" lon="4.33827">
        <ele>844.89087</ele>
        <time>2015-10-17T09:06:41Z</time>
      </trkpt>
      <trkpt lat="45.34492" lon="4.33823">
        <ele>843.10205</ele>
        <time>2015-10-17T09:06:46Z</time>
      </trkpt>
      <trkpt lat="45.34481" lon="4.33819">
        <ele>841.7307</ele>
        <time>2015-10-17T09:06:52Z</time>
      </trkpt>
      <trkpt lat="45.34472" lon="4.33815">
        <ele>840.01324</ele>
        <time>2015-10-17T09:06:57Z</time>
      </trkpt>
      <trkpt lat="45.34463" lon="4.33812">
        <ele>838.8744</ele>
        <time>2015-10-17T09:07:01Z</time>
      </trkpt>
      <trkpt lat="45.34453" lon="4.33809">
        <ele>837.33923</ele>
        <time>2015-10-17T09:07:06Z</time>
      </trkpt>
      <trkpt lat="45.34443" lon="4.33807">
        <ele>835.1647</ele>
        <time>2015-10-17T09:07:11Z</time>
      </trkpt>
      <trkpt lat="45.34434" lon="4.33807">
        <ele>833.79596</ele>
        <time>2015-10-17T09:07:16Z</time>
      </trkpt>
      <trkpt lat="45.34425" lon="4.338">
        <ele>831.9226</ele>
        <time>2015-10-17T09:07:22Z</time>
      </trkpt>
      <trkpt lat="45.34416" lon="4.33794">
        <ele>830.18396</ele>
        <time>2015-10-17T09:07:27Z</time>
      </trkpt>
      <trkpt lat="45.34407" lon="4.33788">
        <ele>828.51666</ele>
        <time>2015-10-17T09:07:32Z</time>
      </trkpt>
      <trkpt lat="45.34396" lon="4.33782">
        <ele>827.15857</ele>
        <time>2015-10-17T09:07:37Z</time>
      </trkpt>
      <trkpt lat="45.34388" lon="4.33776">
        <ele>825.2984</ele>
        <time>2015-10-17T09:07:41Z</time>
      </trkpt>
      <trkpt lat="45.34378" lon="4.3377">
        <ele>824.00635</ele>
        <time>2015-10-17T09:07:45Z</time>
      </trkpt>
      <trkpt lat="45.34369" lon="4.33764">
        <ele>823.211</ele>
        <time>2015-10-17T09:07:49Z</time>
      </trkpt>
      <trkpt lat="45.34359" lon="4.33759">
        <ele>821.82117</ele>
        <time>2015-10-17T09:07:53Z</time>
      </trkpt>
      <trkpt lat="45.34349" lon="4.33756">
        <ele>819.65717</ele>
        <time>2015-10-17T09:07:58Z</time>
      </trkpt>
      <trkpt lat="45.34341" lon="4.33747">
        <ele>817.58563</ele>
        <time>2015-10-17T09:08:43Z</time>
      </trkpt>
      <trkpt lat="45.34331" lon="4.3374">
        <ele>816.84045</ele>
        <time>2015-10-17T09:08:46Z</time>
      </trkpt>
      <trkpt lat="45.34323" lon="4.33731">
        <ele>816.0293</ele>
        <time>2015-10-17T09:08:49Z</time>
      </trkpt>
      <trkpt lat="45.34313" lon="4.33724">
        <ele>814.85876</ele>
        <time>2015-10-17T09:09:55Z</time>
      </trkpt>
      <trkpt lat="45.343" lon="4.33715">
        <ele>813.83624</ele>
        <time>2015-10-17T09:09:59Z</time>
      </trkpt>
      <trkpt lat="45.34288" lon="4.33707">
        <ele>812.7212</ele>
        <time>2015-10-17T09:10:02Z</time>
      </trkpt>
      <trkpt lat="45.34276" lon="4.33701">
        <ele>811.6378</ele>
        <time>2015-10-17T09:10:05Z</time>
      </trkpt>
      <trkpt lat="45.34265" lon="4.33696">
        <ele>810.26385</ele>
        <time>2015-10-17T09:10:08Z</time>
      </trkpt>
      <trkpt lat="45.34253" lon="4.33694">
        <ele>808.66</ele>
        <time>2015-10-17T09:10:11Z</time>
      </trkpt>
      <trkpt lat="45.3424" lon="4.3369">
        <ele>807.55023</ele>
        <time>2015-10-17T09:10:14Z</time>
      </trkpt>
      <trkpt lat="45.3423" lon="4.33682">
        <ele>805.65576</ele>
        <time>2015-10-17T09:10:17Z</time>
      </trkpt>
      <trkpt lat="45.34223" lon="4.33669">
        <ele>804.8921</ele>
        <time>2015-10-17T09:10:19Z</time>
      </trkpt>
      <trkpt lat="45.34215" lon="4.33654">
        <ele>803.3913</ele>
        <time>2015-10-17T09:10:21Z</time>
      </trkpt>
      <trkpt lat="45.34206" lon="4.33638">
        <ele>802.5273</ele>
        <time>2015-10-17T09:10:23Z</time>
      </trkpt>
      <trkpt lat="45.34198" lon="4.33622">
        <ele>802.6356</ele>
        <time>2015-10-17T09:10:25Z</time>
      </trkpt>
      <trkpt lat="45.3419" lon="4.33605">
        <ele>801.71875</ele>
        <time>2015-10-17T09:10:27Z</time>
      </trkpt>
      <trkpt lat="45.34185" lon="4.33593">
        <ele>802.1785</ele>
        <time>2015-10-17T09:10:29Z</time>
      </trkpt>
      <trkpt lat="45.34179" lon="4.3358">
        <ele>802.04376</ele>
        <time>2015-10-17T09:10:31Z</time>
      </trkpt>
      <trkpt lat="45.34173" lon="4.33565">
        <ele>802.45593</ele>
        <time>2015-10-17T09:10:34Z</time>
      </trkpt>
      <trkpt lat="45.34168" lon="4.33554">
        <ele>803.1667</ele>
        <time>2015-10-17T09:10:38Z</time>
      </trkpt>
      <trkpt lat="45.34164" lon="4.33542">
        <ele>803.6767</ele>
        <time>2015-10-17T09:10:42Z</time>
      </trkpt>
      <trkpt lat="45.34157" lon="4.33531">
        <ele>804.6385</ele>
        <time>2015-10-17T09:10:46Z</time>
      </trkpt>
      <trkpt lat="45.3415" lon="4.33521">
        <ele>805.4972</ele>
        <time>2015-10-17T09:10:50Z</time>
      </trkpt>
      <trkpt lat="45.34145" lon="4.33509">
        <ele>805.8671</ele>
        <time>2015-10-17T09:10:55Z</time>
      </trkpt>
      <trkpt lat="45.3414" lon="4.33494">
        <ele>807.4974</ele>
        <time>2015-10-17T09:11:01Z</time>
      </trkpt>
      <trkpt lat="45.34137" lon="4.33482">
        <ele>808.1263</ele>
        <time>2015-10-17T09:11:06Z</time>
      </trkpt>
      <trkpt lat="45.34132" lon="4.33468">
        <ele>808.65735</ele>
        <time>2015-10-17T09:11:12Z</time>
      </trkpt>
      <trkpt lat="45.34131" lon="4.33455">
        <ele>810.2797</ele>
        <time>2015-10-17T09:11:18Z</time>
      </trkpt>
      <trkpt lat="45.34126" lon="4.33443">
        <ele>811.585</ele>
        <time>2015-10-17T09:11:24Z</time>
      </trkpt>
      <trkpt lat="45.34134" lon="4.33436">
        <ele>812.26935</ele>
        <time>2015-10-17T09:11:28Z</time>
      </trkpt>
      <trkpt lat="45.34143" lon="4.33425">
        <ele>813.33154</ele>
        <time>2015-10-17T09:11:33Z</time>
      </trkpt>
      <trkpt lat="45.34151" lon="4.33416">
        <ele>814.1216</ele>
        <time>2015-10-17T09:11:37Z</time>
      </trkpt>
      <trkpt lat="45.3415" lon="4.33404">
        <ele>815.9685</ele>
        <time>2015-10-17T09:11:48Z</time>
      </trkpt>
      <trkpt lat="45.34141" lon="4.33395">
        <ele>818.28314</ele>
        <time>2015-10-17T09:11:55Z</time>
      </trkpt>
      <trkpt lat="45.34139" lon="4.33382">
        <ele>819.95044</ele>
        <time>2015-10-17T09:12:03Z</time>
      </trkpt>
      <trkpt lat="45.34137" lon="4.33369">
        <ele>822.3232</ele>
        <time>2015-10-17T09:12:10Z</time>
      </trkpt>
      <trkpt lat="45.34132" lon="4.33357">
        <ele>823.4092</ele>
        <time>2015-10-17T09:12:18Z</time>
      </trkpt>
      <trkpt lat="45.34125" lon="4.33349">
        <ele>824.38153</ele>
        <time>2015-10-17T09:12:24Z</time>
      </trkpt>
      <trkpt lat="45.34117" lon="4.33341">
        <ele>825.5547</ele>
        <time>2015-10-17T09:12:31Z</time>
      </trkpt>
      <trkpt lat="45.34111" lon="4.3333">
        <ele>825.8242</ele>
        <time>2015-10-17T09:12:36Z</time>
      </trkpt>
      <trkpt lat="45.34111" lon="4.33316">
        <ele>827.05817</ele>
        <time>2015-10-17T09:12:44Z</time>
      </trkpt>
      <trkpt lat="45.34118" lon="4.33307">
        <ele>825.8559</ele>
        <time>2015-10-17T09:13:50Z</time>
      </trkpt>
      <trkpt lat="45.34123" lon="4.33293">
        <ele>824.36566</ele>
        <time>2015-10-17T09:13:54Z</time>
      </trkpt>
      <trkpt lat="45.34129" lon="4.33279">
        <ele>823.3748</ele>
        <time>2015-10-17T09:13:57Z</time>
      </trkpt>
      <trkpt lat="45.34133" lon="4.33263">
        <ele>821.4618</ele>
        <time>2015-10-17T09:14:00Z</time>
      </trkpt>
      <trkpt lat="45.34134" lon="4.33246">
        <ele>820.3098</ele>
        <time>2015-10-17T09:14:03Z</time>
      </trkpt>
      <trkpt lat="45.34134" lon="4.33228">
        <ele>820.11426</ele>
        <time>2015-10-17T09:14:06Z</time>
      </trkpt>
      <trkpt lat="45.34131" lon="4.33212">
        <ele>818.9543</ele>
        <time>2015-10-17T09:14:09Z</time>
      </trkpt>
      <trkpt lat="45.34127" lon="4.33197">
        <ele>819.00183</ele>
        <time>2015-10-17T09:14:12Z</time>
      </trkpt>
      <trkpt lat="45.34123" lon="4.33181">
        <ele>817.937</ele>
        <time>2015-10-17T09:14:15Z</time>
      </trkpt>
      <trkpt lat="45.34122" lon="4.33164">
        <ele>817.4931</ele>
        <time>2015-10-17T09:14:18Z</time>
      </trkpt>
      <trkpt lat="45.34122" lon="4.33148">
        <ele>816.9911</ele>
        <time>2015-10-17T09:14:21Z</time>
      </trkpt>
      <trkpt lat="45.34124" lon="4.33134">
        <ele>817.18665</ele>
        <time>2015-10-17T09:14:24Z</time>
      </trkpt>
      <trkpt lat="45.34126" lon="4.3312">
        <ele>816.9303</ele>
        <time>2015-10-17T09:14:28Z</time>
      </trkpt>
      <trkpt lat="45.34127" lon="4.33106">
        <ele>816.7374</ele>
        <time>2015-10-17T09:14:32Z</time>
      </trkpt>
      <trkpt lat="45.34127" lon="4.33091">
        <ele>816.3966</ele>
        <time>2015-10-17T09:14:36Z</time>
      </trkpt>
      <trkpt lat="45.34127" lon="4.33075">
        <ele>816.05835</ele>
        <time>2015-10-17T09:14:40Z</time>
      </trkpt>
      <trkpt lat="45.34133" lon="4.33061">
        <ele>814.96185</ele>
        <time>2015-10-17T09:14:44Z</time>
      </trkpt>
      <trkpt lat="45.34136" lon="4.33048">
        <ele>814.39374</ele>
        <time>2015-10-17T09:14:47Z</time>
      </trkpt>
      <trkpt lat="45.34141" lon="4.33034">
        <ele>813.95776</ele>
        <time>2015-10-17T09:14:51Z</time>
      </trkpt>
      <trkpt lat="45.34145" lon="4.33023">
        <ele>813.83624</ele>
        <time>2015-10-17T09:14:55Z</time>
      </trkpt>
      <trkpt lat="45.34149" lon="4.33011">
        <ele>814.1242</ele>
        <time>2015-10-17T09:14:59Z</time>
      </trkpt>
      <trkpt lat="45.34153" lon="4.32998">
        <ele>813.7464</ele>
        <time>2015-10-17T09:15:03Z</time>
      </trkpt>
      <trkpt lat="45.34155" lon="4.32984">
        <ele>813.3104</ele>
        <time>2015-10-17T09:15:07Z</time>
      </trkpt>
      <trkpt lat="45.34158" lon="4.32969">
        <ele>812.3671</ele>
        <time>2015-10-17T09:16:15Z</time>
      </trkpt>
      <trkpt lat="45.34162" lon="4.32958">
        <ele>811.46344</ele>
        <time>2015-10-17T09:16:18Z</time>
      </trkpt>
      <trkpt lat="45.34168" lon="4.32947">
        <ele>810.7738</ele>
        <time>2015-10-17T09:16:21Z</time>
      </trkpt>
      <trkpt lat="45.34176" lon="4.32939">
        <ele>809.67993</ele>
        <time>2015-10-17T09:16:24Z</time>
      </trkpt>
      <trkpt lat="45.34185" lon="4.32931">
        <ele>809.1092</ele>
        <time>2015-10-17T09:16:27Z</time>
      </trkpt>
      <trkpt lat="45.34195" lon="4.32922">
        <ele>808.90045</ele>
        <time>2015-10-17T09:16:30Z</time>
      </trkpt>
      <trkpt lat="45.34203" lon="4.32912">
        <ele>809.17</ele>
        <time>2015-10-17T09:16:33Z</time>
      </trkpt>
      <trkpt lat="45.34209" lon="4.32902">
        <ele>808.8661</ele>
        <time>2015-10-17T09:17:27Z</time>
      </trkpt>
      <trkpt lat="45.34215" lon="4.3289">
        <ele>808.5702</ele>
        <time>2015-10-17T09:17:33Z</time>
      </trkpt>
      <trkpt lat="45.34219" lon="4.32878">
        <ele>808.76306</ele>
        <time>2015-10-17T09:17:38Z</time>
      </trkpt>
      <trkpt lat="45.34226" lon="4.32865">
        <ele>808.93744</ele>
        <time>2015-10-17T09:17:43Z</time>
      </trkpt>
      <trkpt lat="45.34231" lon="4.32853">
        <ele>809.73804</ele>
        <time>2015-10-17T09:17:47Z</time>
      </trkpt>
      <trkpt lat="45.34239" lon="4.32842">
        <ele>809.4078</ele>
        <time>2015-10-17T09:17:51Z</time>
      </trkpt>
      <trkpt lat="45.34248" lon="4.32831">
        <ele>809.7486</ele>
        <time>2015-10-17T09:17:55Z</time>
      </trkpt>
      <trkpt lat="45.34254" lon="4.32819">
        <ele>808.95593</ele>
        <time>2015-10-17T09:17:59Z</time>
      </trkpt>
      <trkpt lat="45.34259" lon="4.32808">
        <ele>808.5596</ele>
        <time>2015-10-17T09:18:04Z</time>
      </trkpt>
      <trkpt lat="45.34265" lon="4.32798">
        <ele>809.5505</ele>
        <time>2015-10-17T09:18:08Z</time>
      </trkpt>
      <trkpt lat="45.34271" lon="4.32787">
        <ele>809.1541</ele>
        <time>2015-10-17T09:18:12Z</time>
      </trkpt>
      <trkpt lat="45.34276" lon="4.32776">
        <ele>809.31793</ele>
        <time>2015-10-17T09:18:16Z</time>
      </trkpt>
      <trkpt lat="45.34283" lon="4.32767">
        <ele>809.9283</ele>
        <time>2015-10-17T09:18:20Z</time>
      </trkpt>
      <trkpt lat="45.3429" lon="4.32756">
        <ele>810.03925</ele>
        <time>2015-10-17T09:18:25Z</time>
      </trkpt>
      <trkpt lat="45.34295" lon="4.32745">
        <ele>810.1793</ele>
        <time>2015-10-17T09:18:31Z</time>
      </trkpt>
      <trkpt lat="45.34301" lon="4.32733">
        <ele>810.74475</ele>
        <time>2015-10-17T09:18:37Z</time>
      </trkpt>
      <trkpt lat="45.34305" lon="4.3272">
        <ele>811.40533</ele>
        <time>2015-10-17T09:18:42Z</time>
      </trkpt>
      <trkpt lat="45.34312" lon="4.3271">
        <ele>810.972</ele>
        <time>2015-10-17T09:18:47Z</time>
      </trkpt>
      <trkpt lat="45.34314" lon="4.32697">
        <ele>811.82544</ele>
        <time>2015-10-17T09:18:52Z</time>
      </trkpt>
      <trkpt lat="45.34317" lon="4.32683">
        <ele>812.3962</ele>
        <time>2015-10-17T09:18:58Z</time>
      </trkpt>
      <trkpt lat="45.34323" lon="4.3267">
        <ele>812.35126</ele>
        <time>2015-10-17T09:19:04Z</time>
      </trkpt>
      <trkpt lat="45.34324" lon="4.32656">
        <ele>813.88116</ele>
        <time>2015-10-17T09:19:10Z</time>
      </trkpt>
      <trkpt lat="45.34327" lon="4.32643">
        <ele>815.5669</ele>
        <time>2015-10-17T09:19:16Z</time>
      </trkpt>
      <trkpt lat="45.34332" lon="4.3263">
        <ele>816.10596</ele>
        <time>2015-10-17T09:19:23Z</time>
      </trkpt>
      <trkpt lat="45.34335" lon="4.32616">
        <ele>816.60004</ele>
        <time>2015-10-17T09:19:29Z</time>
      </trkpt>
      <trkpt lat="45.34338" lon="4.32601">
        <ele>817.6966</ele>
        <time>2015-10-17T09:19:34Z</time>
      </trkpt>
      <trkpt lat="45.3434" lon="4.32589">
        <ele>817.77057</ele>
        <time>2015-10-17T09:19:39Z</time>
      </trkpt>
      <trkpt lat="45.34345" lon="4.32576">
        <ele>817.8181</ele>
        <time>2015-10-17T09:19:46Z</time>
      </trkpt>
      <trkpt lat="45.34348" lon="4.32561">
        <ele>817.8736</ele>
        <time>2015-10-17T09:19:52Z</time>
      </trkpt>
      <trkpt lat="45.34351" lon="4.32549">
        <ele>818.0718</ele>
        <time>2015-10-17T09:19:57Z</time>
      </trkpt>
      <trkpt lat="45.34358" lon="4.32537">
        <ele>818.1986</ele>
        <time>2015-10-17T09:20:03Z</time>
      </trkpt>
      <trkpt lat="45.34366" lon="4.32529">
        <ele>816.30676</ele>
        <time>2015-10-17T09:20:10Z</time>
      </trkpt>
      <trkpt lat="45.3437" lon="4.32515">
        <ele>812.27466</ele>
        <time>2015-10-17T09:21:01Z</time>
      </trkpt>
      <trkpt lat="45.34377" lon="4.32503">
        <ele>810.2533</ele>
        <time>2015-10-17T09:21:06Z</time>
      </trkpt>
      <trkpt lat="45.34385" lon="4.32492">
        <ele>808.0893</ele>
        <time>2015-10-17T09:21:11Z</time>
      </trkpt>
      <trkpt lat="45.34395" lon="4.32488">
        <ele>806.8421</ele>
        <time>2015-10-17T09:21:16Z</time>
      </trkpt>
      <trkpt lat="45.34404" lon="4.32481">
        <ele>805.373</ele>
        <time>2015-10-17T09:21:20Z</time>
      </trkpt>
      <trkpt lat="45.34414" lon="4.32475">
        <ele>803.1033</ele>
        <time>2015-10-17T09:21:24Z</time>
      </trkpt>
      <trkpt lat="45.34422" lon="4.32466">
        <ele>801.1242</ele>
        <time>2015-10-17T09:21:27Z</time>
      </trkpt>
      <trkpt lat="45.3443" lon="4.32456">
        <ele>799.8824</ele>
        <time>2015-10-17T09:21:30Z</time>
      </trkpt>
      <trkpt lat="45.34437" lon="4.32446">
        <ele>798.5163</ele>
        <time>2015-10-17T09:21:33Z</time>
      </trkpt>
      <trkpt lat="45.34441" lon="4.32432">
        <ele>796.7169</ele>
        <time>2015-10-17T09:21:36Z</time>
      </trkpt>
      <trkpt lat="45.34446" lon="4.32416">
        <ele>795.6547</ele>
        <time>2015-10-17T09:21:39Z</time>
      </trkpt>
      <trkpt lat="45.34453" lon="4.32401">
        <ele>794.109</ele>
        <time>2015-10-17T09:21:42Z</time>
      </trkpt>
      <trkpt lat="45.3446" lon="4.32389">
        <ele>792.83276</ele>
        <time>2015-10-17T09:21:45Z</time>
      </trkpt>
      <trkpt lat="45.34469" lon="4.32377">
        <ele>791.9238</ele>
        <time>2015-10-17T09:21:48Z</time>
      </trkpt>
      <trkpt lat="45.34476" lon="4.32368">
        <ele>790.9647</ele>
        <time>2015-10-17T09:21:51Z</time>
      </trkpt>
      <trkpt lat="45.34486" lon="4.32367">
        <ele>790.8537</ele>
        <time>2015-10-17T09:21:58Z</time>
      </trkpt>
      <trkpt lat="45.34493" lon="4.32359">
        <ele>791.20514</ele>
        <time>2015-10-17T09:22:33Z</time>
      </trkpt>
      <trkpt lat="45.34498" lon="4.32347">
        <ele>790.96204</ele>
        <time>2015-10-17T09:23:40Z</time>
      </trkpt>
      <trkpt lat="45.34501" lon="4.32333">
        <ele>790.96204</ele>
        <time>2015-10-17T09:23:44Z</time>
      </trkpt>
      <trkpt lat="45.34499" lon="4.32319">
        <ele>790.8194</ele>
        <time>2015-10-17T09:23:49Z</time>
      </trkpt>
      <trkpt lat="45.34493" lon="4.3231">
        <ele>790.5314</ele>
        <time>2015-10-17T09:23:54Z</time>
      </trkpt>
      <trkpt lat="45.34483" lon="4.32302">
        <ele>790.80084</ele>
        <time>2015-10-17T09:24:00Z</time>
      </trkpt>
      <trkpt lat="45.34475" lon="4.32295">
        <ele>790.999</ele>
        <time>2015-10-17T09:24:05Z</time>
      </trkpt>
      <trkpt lat="45.34466" lon="4.32289">
        <ele>791.3399</ele>
        <time>2015-10-17T09:24:10Z</time>
      </trkpt>
      <trkpt lat="45.34457" lon="4.32285">
        <ele>792.7482</ele>
        <time>2015-10-17T09:24:15Z</time>
      </trkpt>
      <trkpt lat="45.34447" lon="4.32285">
        <ele>793.4828</ele>
        <time>2015-10-17T09:24:22Z</time>
      </trkpt>
      <trkpt lat="45.34437" lon="4.3228">
        <ele>793.51447</ele>
        <time>2015-10-17T09:24:27Z</time>
      </trkpt>
      <trkpt lat="45.34427" lon="4.32277">
        <ele>794.05615</ele>
        <time>2015-10-17T09:24:34Z</time>
      </trkpt>
      <trkpt lat="45.34417" lon="4.32274">
        <ele>794.36</ele>
        <time>2015-10-17T09:24:39Z</time>
      </trkpt>
      <trkpt lat="45.34407" lon="4.32271">
        <ele>794.7273</ele>
        <time>2015-10-17T09:24:44Z</time>
      </trkpt>
      <trkpt lat="45.34397" lon="4.3227">
        <ele>794.26227</ele>
        <time>2015-10-17T09:24:49Z</time>
      </trkpt>
      <trkpt lat="45.34388" lon="4.32271">
        <ele>794.2728</ele>
        <time>2015-10-17T09:24:54Z</time>
      </trkpt>
      <trkpt lat="45.34378" lon="4.32269">
        <ele>793.99274</ele>
        <time>2015-10-17T09:24:58Z</time>
      </trkpt>
      <trkpt lat="45.34369" lon="4.32269">
        <ele>793.91345</ele>
        <time>2015-10-17T09:25:03Z</time>
      </trkpt>
      <trkpt lat="45.34359" lon="4.32265">
        <ele>793.6783</ele>
        <time>2015-10-17T09:25:08Z</time>
      </trkpt>
      <trkpt lat="45.3435" lon="4.32266">
        <ele>793.33215</ele>
        <time>2015-10-17T09:25:13Z</time>
      </trkpt>
      <trkpt lat="45.34341" lon="4.32263">
        <ele>792.62933</ele>
        <time>2015-10-17T09:25:19Z</time>
      </trkpt>
      <trkpt lat="45.34331" lon="4.32258">
        <ele>793.348</ele>
        <time>2015-10-17T09:25:23Z</time>
      </trkpt>
      <trkpt lat="45.34321" lon="4.32255">
        <ele>793.6598</ele>
        <time>2015-10-17T09:25:29Z</time>
      </trkpt>
      <trkpt lat="45.34313" lon="4.3225">
        <ele>794.54236</ele>
        <time>2015-10-17T09:25:43Z</time>
      </trkpt>
      <trkpt lat="45.34303" lon="4.32251">
        <ele>795.8503</ele>
        <time>2015-10-17T09:25:50Z</time>
      </trkpt>
      <trkpt lat="45.34304" lon="4.32264">
        <ele>795.5649</ele>
        <time>2015-10-17T09:27:04Z</time>
      </trkpt>
      <trkpt lat="45.34296" lon="4.32271">
        <ele>796.8543</ele>
        <time>2015-10-17T09:27:09Z</time>
      </trkpt>
      <trkpt lat="45.34289" lon="4.3228">
        <ele>798.6986</ele>
        <time>2015-10-17T09:27:16Z</time>
      </trkpt>
      <trkpt lat="45.34282" lon="4.3229">
        <ele>799.2535</ele>
        <time>2015-10-17T09:27:21Z</time>
      </trkpt>
      <trkpt lat="45.34272" lon="4.32298">
        <ele>801.0159</ele>
        <time>2015-10-17T09:27:28Z</time>
      </trkpt>
      <trkpt lat="45.3426" lon="4.323">
        <ele>801.9539</ele>
        <time>2015-10-17T09:27:35Z</time>
      </trkpt>
      <trkpt lat="45.3425" lon="4.32302">
        <ele>803.571</ele>
        <time>2015-10-17T09:27:41Z</time>
      </trkpt>
      <trkpt lat="45.34238" lon="4.32304">
        <ele>804.83136</ele>
        <time>2015-10-17T09:27:52Z</time>
      </trkpt>
      <trkpt lat="45.34229" lon="4.32304">
        <ele>805.07446</ele>
        <time>2015-10-17T09:27:57Z</time>
      </trkpt>
      <trkpt lat="45.3422" lon="4.32308">
        <ele>805.1008</ele>
        <time>2015-10-17T09:28:02Z</time>
      </trkpt>
      <trkpt lat="45.34211" lon="4.3231">
        <ele>805.336</ele>
        <time>2015-10-17T09:28:07Z</time>
      </trkpt>
      <trkpt lat="45.342" lon="4.32313">
        <ele>805.73236</ele>
        <time>2015-10-17T09:28:13Z</time>
      </trkpt>
      <trkpt lat="45.34191" lon="4.32316">
        <ele>805.8222</ele>
        <time>2015-10-17T09:28:18Z</time>
      </trkpt>
      <trkpt lat="45.34182" lon="4.32321">
        <ele>806.22644</ele>
        <time>2015-10-17T09:28:24Z</time>
      </trkpt>
      <trkpt lat="45.34173" lon="4.32328">
        <ele>806.5409</ele>
        <time>2015-10-17T09:28:30Z</time>
      </trkpt>
      <trkpt lat="45.34163" lon="4.32334">
        <ele>807.0112</ele>
        <time>2015-10-17T09:28:36Z</time>
      </trkpt>
      <trkpt lat="45.34152" lon="4.32337">
        <ele>807.1011</ele>
        <time>2015-10-17T09:28:41Z</time>
      </trkpt>
      <trkpt lat="45.34145" lon="4.32345">
        <ele>806.99274</ele>
        <time>2015-10-17T09:28:46Z</time>
      </trkpt>
      <trkpt lat="45.34137" lon="4.32353">
        <ele>807.1724</ele>
        <time>2015-10-17T09:28:51Z</time>
      </trkpt>
      <trkpt lat="45.34128" lon="4.32363">
        <ele>807.6057</ele>
        <time>2015-10-17T09:28:56Z</time>
      </trkpt>
      <trkpt lat="45.34122" lon="4.32372">
        <ele>807.9228</ele>
        <time>2015-10-17T09:29:00Z</time>
      </trkpt>
      <trkpt lat="45.34115" lon="4.32383">
        <ele>807.9836</ele>
        <time>2015-10-17T09:29:05Z</time>
      </trkpt>
      <trkpt lat="45.34106" lon="4.32392">
        <ele>807.7299</ele>
        <time>2015-10-17T09:29:10Z</time>
      </trkpt>
      <trkpt lat="45.34098" lon="4.324">
        <ele>808.2082</ele>
        <time>2015-10-17T09:29:14Z</time>
      </trkpt>
      <trkpt lat="45.3409" lon="4.32411">
        <ele>808.5041</ele>
        <time>2015-10-17T09:29:19Z</time>
      </trkpt>
      <trkpt lat="45.34085" lon="4.32422">
        <ele>808.6732</ele>
        <time>2015-10-17T09:29:23Z</time>
      </trkpt>
      <trkpt lat="45.34081" lon="4.32433">
        <ele>808.5094</ele>
        <time>2015-10-17T09:29:27Z</time>
      </trkpt>
      <trkpt lat="45.34074" lon="4.32446">
        <ele>808.83966</ele>
        <time>2015-10-17T09:29:32Z</time>
      </trkpt>
      <trkpt lat="45.34065" lon="4.32452">
        <ele>809.18317</ele>
        <time>2015-10-17T09:29:37Z</time>
      </trkpt>
      <trkpt lat="45.34053" lon="4.32449">
        <ele>805.6055</ele>
        <time>2015-10-17T09:31:00Z</time>
      </trkpt>
      <trkpt lat="45.34045" lon="4.32452">
        <ele>803.9779</ele>
        <time>2015-10-17T09:31:06Z</time>
      </trkpt>
      <trkpt lat="45.34036" lon="4.32457">
        <ele>802.0887</ele>
        <time>2015-10-17T09:31:14Z</time>
      </trkpt>
      <trkpt lat="45.34026" lon="4.32464">
        <ele>800.11755</ele>
        <time>2015-10-17T09:31:16Z</time>
      </trkpt>
      <trkpt lat="45.34015" lon="4.32471">
        <ele>799.19275</ele>
        <time>2015-10-17T09:31:17Z</time>
      </trkpt>
      <trkpt lat="45.34" lon="4.32477">
        <ele>796.96</ele>
        <time>2015-10-17T09:31:19Z</time>
      </trkpt>
      <trkpt lat="45.33987" lon="4.32477">
        <ele>795.5517</ele>
        <time>2015-10-17T09:31:21Z</time>
      </trkpt>
      <trkpt lat="45.33973" lon="4.32478">
        <ele>794.41284</ele>
        <time>2015-10-17T09:31:23Z</time>
      </trkpt>
      <trkpt lat="45.33962" lon="4.32477">
        <ele>793.74963</ele>
        <time>2015-10-17T09:31:25Z</time>
      </trkpt>
      <trkpt lat="45.33951" lon="4.32479">
        <ele>793.21326</ele>
        <time>2015-10-17T09:31:28Z</time>
      </trkpt>
      <trkpt lat="45.33942" lon="4.32483">
        <ele>793.1842</ele>
        <time>2015-10-17T09:31:42Z</time>
      </trkpt>
      <trkpt lat="45.33935" lon="4.32493">
        <ele>789.8285</ele>
        <time>2015-10-17T09:32:50Z</time>
      </trkpt>
      <trkpt lat="45.33926" lon="4.32498">
        <ele>788.5682</ele>
        <time>2015-10-17T09:33:00Z</time>
      </trkpt>
      <trkpt lat="45.33918" lon="4.32507">
        <ele>787.6909</ele>
        <time>2015-10-17T09:33:05Z</time>
      </trkpt>
      <trkpt lat="45.33909" lon="4.32512">
        <ele>786.383</ele>
        <time>2015-10-17T09:33:09Z</time>
      </trkpt>
      <trkpt lat="45.33899" lon="4.3251">
        <ele>784.3326</ele>
        <time>2015-10-17T09:33:12Z</time>
      </trkpt>
      <trkpt lat="45.3389" lon="4.32511">
        <ele>784.4224</ele>
        <time>2015-10-17T09:33:16Z</time>
      </trkpt>
      <trkpt lat="45.33884" lon="4.32501">
        <ele>785.4397</ele>
        <time>2015-10-17T09:33:25Z</time>
      </trkpt>
      <trkpt lat="45.33884" lon="4.32487">
        <ele>792.5395</ele>
        <time>2015-10-17T09:33:47Z</time>
      </trkpt>
      <trkpt lat="45.33878" lon="4.32478">
        <ele>792.9437</ele>
        <time>2015-10-17T09:33:52Z</time>
      </trkpt>
      <trkpt lat="45.3387" lon="4.32471">
        <ele>793.858</ele>
        <time>2015-10-17T09:33:57Z</time>
      </trkpt>
      <trkpt lat="45.33861" lon="4.32466">
        <ele>794.25433</ele>
        <time>2015-10-17T09:34:02Z</time>
      </trkpt>
      <trkpt lat="45.33851" lon="4.32464">
        <ele>795.3694</ele>
        <time>2015-10-17T09:34:09Z</time>
      </trkpt>
      <trkpt lat="45.33841" lon="4.32462">
        <ele>795.9982</ele>
        <time>2015-10-17T09:34:15Z</time>
      </trkpt>
      <trkpt lat="45.33832" lon="4.32459">
        <ele>797.5915</ele>
        <time>2015-10-17T09:34:21Z</time>
      </trkpt>
      <trkpt lat="45.33822" lon="4.32457">
        <ele>797.56244</ele>
        <time>2015-10-17T09:34:27Z</time>
      </trkpt>
      <trkpt lat="45.33813" lon="4.32456">
        <ele>798.6405</ele>
        <time>2015-10-17T09:34:33Z</time>
      </trkpt>
      <trkpt lat="45.33803" lon="4.32456">
        <ele>799.67365</ele>
        <time>2015-10-17T09:34:39Z</time>
      </trkpt>
      <trkpt lat="45.33793" lon="4.32454">
        <ele>799.7582</ele>
        <time>2015-10-17T09:34:45Z</time>
      </trkpt>
      <trkpt lat="45.33783" lon="4.32454">
        <ele>800.6592</ele>
        <time>2015-10-17T09:34:51Z</time>
      </trkpt>
      <trkpt lat="45.33774" lon="4.32456">
        <ele>800.85474</ele>
        <time>2015-10-17T09:34:58Z</time>
      </trkpt>
      <trkpt lat="45.33765" lon="4.32455">
        <ele>800.11755</ele>
        <time>2015-10-17T09:35:03Z</time>
      </trkpt>
      <trkpt lat="45.33755" lon="4.32455">
        <ele>799.92993</ele>
        <time>2015-10-17T09:35:08Z</time>
      </trkpt>
      <trkpt lat="45.33751" lon="4.3244">
        <ele>801.3541</ele>
        <time>2015-10-17T09:35:15Z</time>
      </trkpt>
      <trkpt lat="45.3375" lon="4.32426">
        <ele>802.4216</ele>
        <time>2015-10-17T09:35:21Z</time>
      </trkpt>
      <trkpt lat="45.33751" lon="4.32413">
        <ele>803.032</ele>
        <time>2015-10-17T09:35:44Z</time>
      </trkpt>
      <trkpt lat="45.3375" lon="4.324">
        <ele>804.0757</ele>
        <time>2015-10-17T09:35:50Z</time>
      </trkpt>
      <trkpt lat="45.33748" lon="4.32387">
        <ele>804.8181</ele>
        <time>2015-10-17T09:35:57Z</time>
      </trkpt>
      <trkpt lat="45.33749" lon="4.32374">
        <ele>805.61346</ele>
        <time>2015-10-17T09:37:22Z</time>
      </trkpt>
      <trkpt lat="45.33747" lon="4.32361">
        <ele>806.1102</ele>
        <time>2015-10-17T09:37:30Z</time>
      </trkpt>
      <trkpt lat="45.33745" lon="4.32347">
        <ele>806.6624</ele>
        <time>2015-10-17T09:37:38Z</time>
      </trkpt>
      <trkpt lat="45.33742" lon="4.32333">
        <ele>806.81305</ele>
        <time>2015-10-17T09:37:44Z</time>
      </trkpt>
      <trkpt lat="45.3374" lon="4.32321">
        <ele>806.6017</ele>
        <time>2015-10-17T09:37:49Z</time>
      </trkpt>
      <trkpt lat="45.33736" lon="4.32309">
        <ele>806.7972</ele>
        <time>2015-10-17T09:37:56Z</time>
      </trkpt>
      <trkpt lat="45.33732" lon="4.32296">
        <ele>806.7972</ele>
        <time>2015-10-17T09:38:03Z</time>
      </trkpt>
      <trkpt lat="45.33726" lon="4.32283">
        <ele>807.33356</ele>
        <time>2015-10-17T09:38:08Z</time>
      </trkpt>
      <trkpt lat="45.3372" lon="4.3227">
        <ele>807.2279</ele>
        <time>2015-10-17T09:38:13Z</time>
      </trkpt>
      <trkpt lat="45.33714" lon="4.32258">
        <ele>807.11957</ele>
        <time>2015-10-17T09:38:19Z</time>
      </trkpt>
      <trkpt lat="45.33708" lon="4.32247">
        <ele>807.0482</ele>
        <time>2015-10-17T09:38:24Z</time>
      </trkpt>
      <trkpt lat="45.33703" lon="4.32235">
        <ele>807.4261</ele>
        <time>2015-10-17T09:38:28Z</time>
      </trkpt>
      <trkpt lat="45.33698" lon="4.32223">
        <ele>807.31506</ele>
        <time>2015-10-17T09:38:33Z</time>
      </trkpt>
      <trkpt lat="45.33693" lon="4.32212">
        <ele>807.3679</ele>
        <time>2015-10-17T09:38:36Z</time>
      </trkpt>
      <trkpt lat="45.33688" lon="4.32195">
        <ele>807.7431</ele>
        <time>2015-10-17T09:38:41Z</time>
      </trkpt>
      <trkpt lat="45.33684" lon="4.32183">
        <ele>807.41284</ele>
        <time>2015-10-17T09:38:45Z</time>
      </trkpt>
      <trkpt lat="45.33681" lon="4.3217">
        <ele>807.93866</ele>
        <time>2015-10-17T09:38:50Z</time>
      </trkpt>
      <trkpt lat="45.33678" lon="4.32156">
        <ele>808.31384</ele>
        <time>2015-10-17T09:38:54Z</time>
      </trkpt>
      <trkpt lat="45.33674" lon="4.3214">
        <ele>809.22546</ele>
        <time>2015-10-17T09:39:00Z</time>
      </trkpt>
      <trkpt lat="45.3367" lon="4.32123">
        <ele>810.50433</ele>
        <time>2015-10-17T09:39:06Z</time>
      </trkpt>
      <trkpt lat="45.33669" lon="4.32109">
        <ele>811.075</ele>
        <time>2015-10-17T09:39:12Z</time>
      </trkpt>
      <trkpt lat="45.33672" lon="4.32094">
        <ele>810.2929</ele>
        <time>2015-10-17T09:39:17Z</time>
      </trkpt>
      <trkpt lat="45.33677" lon="4.32078">
        <ele>808.65735</ele>
        <time>2015-10-17T09:39:21Z</time>
      </trkpt>
      <trkpt lat="45.33679" lon="4.32064">
        <ele>808.1078</ele>
        <time>2015-10-17T09:39:24Z</time>
      </trkpt>
      <trkpt lat="45.33681" lon="4.32047">
        <ele>807.41284</ele>
        <time>2015-10-17T09:39:27Z</time>
      </trkpt>
      <trkpt lat="45.33684" lon="4.32034">
        <ele>806.7417</ele>
        <time>2015-10-17T09:39:31Z</time>
      </trkpt>
      <trkpt lat="45.33694" lon="4.32036">
        <ele>806.33215</ele>
        <time>2015-10-17T09:39:37Z</time>
      </trkpt>
      <trkpt lat="45.33704" lon="4.32036">
        <ele>805.9649</ele>
        <time>2015-10-17T09:39:41Z</time>
      </trkpt>
      <trkpt lat="45.33712" lon="4.32031">
        <ele>804.6332</ele>
        <time>2015-10-17T09:39:46Z</time>
      </trkpt>
      <trkpt lat="45.33723" lon="4.32028">
        <ele>803.40717</ele>
        <time>2015-10-17T09:39:51Z</time>
      </trkpt>
      <trkpt lat="45.33735" lon="4.32025">
        <ele>802.27625</ele>
        <time>2015-10-17T09:39:55Z</time>
      </trkpt>
      <trkpt lat="45.33746" lon="4.32024">
        <ele>801.8033</ele>
        <time>2015-10-17T09:39:58Z</time>
      </trkpt>
      <trkpt lat="45.33756" lon="4.32022">
        <ele>800.8917</ele>
        <time>2015-10-17T09:40:01Z</time>
      </trkpt>
      <trkpt lat="45.33767" lon="4.32018">
        <ele>800.0832</ele>
        <time>2015-10-17T09:40:04Z</time>
      </trkpt>
      <trkpt lat="45.33777" lon="4.32011">
        <ele>799.85333</ele>
        <time>2015-10-17T09:40:07Z</time>
      </trkpt>
      <trkpt lat="45.33785" lon="4.32004">
        <ele>799.235</ele>
        <time>2015-10-17T09:40:10Z</time>
      </trkpt>
      <trkpt lat="45.33796" lon="4.31996">
        <ele>797.60474</ele>
        <time>2015-10-17T09:40:14Z</time>
      </trkpt>
      <trkpt lat="45.33806" lon="4.31991">
        <ele>796.6271</ele>
        <time>2015-10-17T09:40:17Z</time>
      </trkpt>
      <trkpt lat="45.33815" lon="4.31983">
        <ele>795.27954</ele>
        <time>2015-10-17T09:40:20Z</time>
      </trkpt>
      <trkpt lat="45.33826" lon="4.31976">
        <ele>794.69556</ele>
        <time>2015-10-17T09:40:23Z</time>
      </trkpt>
      <trkpt lat="45.33837" lon="4.31969">
        <ele>793.9848</ele>
        <time>2015-10-17T09:40:26Z</time>
      </trkpt>
      <trkpt lat="45.33847" lon="4.31959">
        <ele>793.7866</ele>
        <time>2015-10-17T09:40:29Z</time>
      </trkpt>
      <trkpt lat="45.33855" lon="4.31947">
        <ele>792.33075</ele>
        <time>2015-10-17T09:40:32Z</time>
      </trkpt>
      <trkpt lat="45.33872" lon="4.31926">
        <ele>791.50635</ele>
        <time>2015-10-17T09:40:36Z</time>
      </trkpt>
      <trkpt lat="45.33882" lon="4.31912">
        <ele>791.36896</ele>
        <time>2015-10-17T09:40:39Z</time>
      </trkpt>
      <trkpt lat="45.33889" lon="4.319">
        <ele>791.84985</ele>
        <time>2015-10-17T09:40:43Z</time>
      </trkpt>
      <trkpt lat="45.33896" lon="4.31889">
        <ele>792.1854</ele>
        <time>2015-10-17T09:40:47Z</time>
      </trkpt>
      <trkpt lat="45.33901" lon="4.31878">
        <ele>792.7614</ele>
        <time>2015-10-17T09:40:51Z</time>
      </trkpt>
      <trkpt lat="45.33907" lon="4.31866">
        <ele>793.6783</ele>
        <time>2015-10-17T09:40:56Z</time>
      </trkpt>
      <trkpt lat="45.33914" lon="4.31854">
        <ele>794.0667</ele>
        <time>2015-10-17T09:41:01Z</time>
      </trkpt>
      <trkpt lat="45.3392" lon="4.31844">
        <ele>794.19885</ele>
        <time>2015-10-17T09:41:05Z</time>
      </trkpt>
      <trkpt lat="45.33927" lon="4.31833">
        <ele>794.109</ele>
        <time>2015-10-17T09:41:09Z</time>
      </trkpt>
      <trkpt lat="45.33935" lon="4.31823">
        <ele>793.9637</ele>
        <time>2015-10-17T09:41:13Z</time>
      </trkpt>
      <trkpt lat="45.33942" lon="4.31813">
        <ele>793.8289</ele>
        <time>2015-10-17T09:41:17Z</time>
      </trkpt>
      <trkpt lat="45.33949" lon="4.31802">
        <ele>793.33746</ele>
        <time>2015-10-17T09:41:21Z</time>
      </trkpt>
      <trkpt lat="45.33957" lon="4.31793">
        <ele>792.8381</ele>
        <time>2015-10-17T09:41:24Z</time>
      </trkpt>
      <trkpt lat="45.33965" lon="4.31783">
        <ele>793.0045</ele>
        <time>2015-10-17T09:41:27Z</time>
      </trkpt>
      <trkpt lat="45.33972" lon="4.31775">
        <ele>792.49194</ele>
        <time>2015-10-17T09:41:30Z</time>
      </trkpt>
      <trkpt lat="45.3398" lon="4.31763">
        <ele>792.3836</ele>
        <time>2015-10-17T09:41:34Z</time>
      </trkpt>
      <trkpt lat="45.33989" lon="4.31752">
        <ele>791.74414</ele>
        <time>2015-10-17T09:41:38Z</time>
      </trkpt>
      <trkpt lat="45.33998" lon="4.31745">
        <ele>791.1787</ele>
        <time>2015-10-17T09:41:41Z</time>
      </trkpt>
      <trkpt lat="45.34006" lon="4.31736">
        <ele>790.8749</ele>
        <time>2015-10-17T09:41:44Z</time>
      </trkpt>
      <trkpt lat="45.34013" lon="4.31728">
        <ele>790.24866</ele>
        <time>2015-10-17T09:41:47Z</time>
      </trkpt>
      <trkpt lat="45.3402" lon="4.31719">
        <ele>789.559</ele>
        <time>2015-10-17T09:41:50Z</time>
      </trkpt>
      <trkpt lat="45.34028" lon="4.3171">
        <ele>789.07544</ele>
        <time>2015-10-17T09:41:53Z</time>
      </trkpt>
      <trkpt lat="45.34035" lon="4.31701">
        <ele>788.0899</ele>
        <time>2015-10-17T09:41:56Z</time>
      </trkpt>
      <trkpt lat="45.34042" lon="4.31692">
        <ele>787.8494</ele>
        <time>2015-10-17T09:42:00Z</time>
      </trkpt>
      <trkpt lat="45.34049" lon="4.31681">
        <ele>786.8665</ele>
        <time>2015-10-17T09:42:06Z</time>
      </trkpt>
      <trkpt lat="45.34055" lon="4.31671">
        <ele>783.9362</ele>
        <time>2015-10-17T09:42:13Z</time>
      </trkpt>
      <trkpt lat="45.34065" lon="4.31661">
        <ele>779.05066</ele>
        <time>2015-10-17T09:42:19Z</time>
      </trkpt>
      <trkpt lat="45.34076" lon="4.31655">
        <ele>778.3161</ele>
        <time>2015-10-17T09:42:22Z</time>
      </trkpt>
      <trkpt lat="45.34086" lon="4.31651">
        <ele>777.5789</ele>
        <time>2015-10-17T09:42:26Z</time>
      </trkpt>
      <trkpt lat="45.34087" lon="4.31638">
        <ele>780.41675</ele>
        <time>2015-10-17T09:44:56Z</time>
      </trkpt>
      <trkpt lat="45.34081" lon="4.31625">
        <ele>781.07996</ele>
        <time>2015-10-17T09:45:00Z</time>
      </trkpt>
      <trkpt lat="45.34075" lon="4.31612">
        <ele>781.6665</ele>
        <time>2015-10-17T09:45:04Z</time>
      </trkpt>
      <trkpt lat="45.34068" lon="4.31602">
        <ele>782.6098</ele>
        <time>2015-10-17T09:45:10Z</time>
      </trkpt>
      <trkpt lat="45.3406" lon="4.31594">
        <ele>784.18195</ele>
        <time>2015-10-17T09:45:21Z</time>
      </trkpt>
      <trkpt lat="45.34052" lon="4.31588">
        <ele>785.35516</ele>
        <time>2015-10-17T09:45:32Z</time>
      </trkpt>
      <trkpt lat="45.34042" lon="4.31587">
        <ele>786.61285</ele>
        <time>2015-10-17T09:45:54Z</time>
      </trkpt>
      <trkpt lat="45.34033" lon="4.31593">
        <ele>788.2141</ele>
        <time>2015-10-17T09:46:01Z</time>
      </trkpt>
      <trkpt lat="45.34026" lon="4.31601">
        <ele>789.3027</ele>
        <time>2015-10-17T09:46:09Z</time>
      </trkpt>
      <trkpt lat="45.34017" lon="4.31606">
        <ele>790.4283</ele>
        <time>2015-10-17T09:46:16Z</time>
      </trkpt>
      <trkpt lat="45.34007" lon="4.31606">
        <ele>792.1194</ele>
        <time>2015-10-17T09:46:23Z</time>
      </trkpt>
      <trkpt lat="45.33999" lon="4.31598">
        <ele>794.19885</ele>
        <time>2015-10-17T09:46:37Z</time>
      </trkpt>
      <trkpt lat="45.34" lon="4.31584">
        <ele>794.6665</ele>
        <time>2015-10-17T09:47:19Z</time>
      </trkpt>
      <trkpt lat="45.34007" lon="4.31574">
        <ele>795.63885</ele>
        <time>2015-10-17T09:47:27Z</time>
      </trkpt>
      <trkpt lat="45.34016" lon="4.31566">
        <ele>797.5994</ele>
        <time>2015-10-17T09:47:38Z</time>
      </trkpt>
      <trkpt lat="45.34023" lon="4.31555">
        <ele>798.8043</ele>
        <time>2015-10-17T09:47:44Z</time>
      </trkpt>
      <trkpt lat="45.34028" lon="4.31543">
        <ele>799.597</ele>
        <time>2015-10-17T09:47:50Z</time>
      </trkpt>
      <trkpt lat="45.34029" lon="4.31529">
        <ele>800.4584</ele>
        <time>2015-10-17T09:47:56Z</time>
      </trkpt>
      <trkpt lat="45.34026" lon="4.31517">
        <ele>801.1876</ele>
        <time>2015-10-17T09:48:02Z</time>
      </trkpt>
      <trkpt lat="45.34031" lon="4.31506">
        <ele>801.21674</ele>
        <time>2015-10-17T09:48:08Z</time>
      </trkpt>
      <trkpt lat="45.34039" lon="4.31496">
        <ele>800.8917</ele>
        <time>2015-10-17T09:48:14Z</time>
      </trkpt>
      <trkpt lat="45.34047" lon="4.31488">
        <ele>801.39636</ele>
        <time>2015-10-17T09:48:19Z</time>
      </trkpt>
      <trkpt lat="45.34054" lon="4.31477">
        <ele>801.83234</ele>
        <time>2015-10-17T09:48:25Z</time>
      </trkpt>
      <trkpt lat="45.34062" lon="4.31467">
        <ele>803.49963</ele>
        <time>2015-10-17T09:48:31Z</time>
      </trkpt>
      <trkpt lat="45.34069" lon="4.31459">
        <ele>804.60675</ele>
        <time>2015-10-17T09:48:36Z</time>
      </trkpt>
      <trkpt lat="45.34076" lon="4.31448">
        <ele>805.3413</ele>
        <time>2015-10-17T09:48:43Z</time>
      </trkpt>
      <trkpt lat="45.34078" lon="4.31435">
        <ele>806.21857</ele>
        <time>2015-10-17T09:48:51Z</time>
      </trkpt>
      <trkpt lat="45.34075" lon="4.31429">
        <ele>807.4604</ele>
        <time>2015-10-17T09:49:12Z</time>
      </trkpt>
      <trkpt lat="45.34075" lon="4.31429">
        <ele>807.4604</ele>
        <time>2015-10-17T09:49:12Z</time>
      </trkpt>
    </trkseg>
  </trk>
</gpx>